Eltham High School

Historical Weather Data

                  Temp     Hi    Low   Out         Wind        Wind    Hi    Hi   Wind   Heat          THSW                Rain  Solar   Solar Hi Solar         UV    Hi     Heat    Cool    In     In          Wind  Wind    ISS   Arc.
  Date    Time     Out   Temp   Temp   Hum    Dew Speed   Dir   Run Speed   Dir  Chill  Index    THW  Index   Bar    Rain  Rate   Rad.  Energy    Rad.    UV   Dose   UV     D-D     D-D    Temp   Hum     ET   Samp   Tx   Recept  Int.
------------------------------------------------------------------------------------------------------------------------------------------------------------------------------------------------------------------------------------------
14/04/19 12:30a   13.4   14.4   13.3    87   11.3   0.0   ---  0.00   0.0   ---   13.4   13.4   13.4   11.8  1038.3  0.00   0.0     0     0.00      0     0.0  0.00   0.0   0.103   0.000   23.3    42    0.00   703    1    100.0   30 
14/04/19  1:00a   12.2   13.3   12.2    88   10.2   0.0   ---  0.00   0.0   ---   12.2   12.2   12.2   10.5  1038.4  0.00   0.0     0     0.00      0     0.0  0.00   0.0   0.128   0.000   23.3    42    0.00   699    1    100.0   30 
14/04/19  1:30a   11.5   12.2   11.5    90    9.9   0.0   ---  0.00   0.0   ---   11.5   11.6   11.6    9.9  1038.2  0.00   0.0     0     0.00      0     0.0  0.00   0.0   0.142   0.000   23.2    42    0.00   699    1    100.0   30 
14/04/19  2:00a   11.2   11.5   11.2    91    9.8   0.0   ---  0.00   0.0   ---   11.2   11.3   11.3    9.7  1038.0  0.00   0.0     0     0.00      0     0.0  0.00   0.0   0.148   0.000   23.2    42    0.00   700    1    100.0   30 
14/04/19  2:30a   11.1   11.2   11.1    92    9.8   0.0   ---  0.00   0.0   ---   11.1   11.2   11.2    9.5  1037.6  0.00   0.0     0     0.00      0     0.0  0.00   0.0   0.152   0.000   23.2    42    0.00   702    1    100.0   30 
14/04/19  3:00a   11.2   11.2   11.1    92   10.0   0.0   ---  0.00   0.0   ---   11.2   11.3   11.3    9.7  1037.4  0.00   0.0     0     0.00      0     0.0  0.00   0.0   0.148   0.000   23.2    42    0.00   701    1    100.0   30 
14/04/19  3:30a   11.4   11.4   11.2    92   10.1   0.0   ---  0.00   0.0   ---   11.4   11.5   11.5    9.8  1037.3  0.00   0.0     0     0.00      0     0.0  0.00   0.0   0.145   0.000   23.2    41    0.00   702    1    100.0   30 
14/04/19  4:00a   11.4   11.4   11.4    92   10.2   0.0   ---  0.00   0.0   ---   11.4   11.6   11.6    9.9  1037.0  0.00   0.0     0     0.00      0     0.0  0.00   0.0   0.144   0.000   23.2    42    0.00   703    1    100.0   30 
14/04/19  4:30a   11.7   11.7   11.4    92   10.4   0.0   ---  0.00   0.0   ---   11.7   11.8   11.8   10.1  1037.2  0.00   0.0     0     0.00      0     0.0  0.00   0.0   0.139   0.000   23.1    42    0.00   698    1    100.0   30 
14/04/19  5:00a   11.8   11.8   11.6    91   10.4   0.0   ---  0.00   0.0   ---   11.8   11.8   11.8   10.2  1037.4  0.00   0.0     0     0.00      0     0.0  0.00   0.0   0.137   0.000   23.1    41    0.00   703    1    100.0   30 
14/04/19  5:30a   11.9   11.9   11.8    91   10.5   0.0   ---  0.00   0.0   ---   11.9   11.9   11.9   10.3  1037.4  0.00   0.0     0     0.00      0     0.0  0.00   0.0   0.134   0.000   23.2    41    0.00   679    1     99.3   30 
14/04/19  6:00a   12.0   12.1   11.9    91   10.6   0.0   ---  0.00   0.0   ---   12.0   12.1   12.1   10.4  1037.5  0.00   0.0     0     0.00      0     0.0  0.00   0.0   0.132   0.000   23.2    42    0.00   702    1    100.0   30 
14/04/19  6:30a   12.1   12.1   12.0    91   10.6   0.0   ---  0.00   0.0   ---   12.1   12.1   12.1   10.5  1037.6  0.00   0.0     0     0.00      0     0.0  0.00   0.0   0.131   0.000   23.1    42    0.00   702    1    100.0   30 
14/04/19  7:00a   12.1   12.2   12.1    90   10.5   0.0   ---  0.00   0.0   ---   12.1   12.1   12.1   10.5  1037.6  0.00   0.0     5     0.22     18     0.0  0.00   0.0   0.131   0.000   23.1    41    0.00   701    1    100.0   30 
14/04/19  7:30a   12.1   12.1   11.9    91   10.6   0.0   ---  0.00   0.0   ---   12.1   12.1   12.1   11.9  1037.9  0.00   0.0    37     1.59     77     0.0  0.00   0.0   0.131   0.000   23.2    41    0.00   700    1    100.0   30 
14/04/19  8:00a   12.6   12.7   12.1    90   11.0   0.0   SSW  0.00   8.0   SSW   12.6   12.7   12.7   14.4  1038.3  0.00   0.0   127     5.46    179     0.0  0.00   0.0   0.119   0.000   23.1    42    0.05   700    1    100.0   30 
14/04/19  8:30a   12.7   12.7   12.6    91   11.2   0.0   ---  0.00   0.0   ---   12.7   12.7   12.7   16.0  1038.5  0.00   0.0   228     9.81    278     0.0  0.00   0.0   0.118   0.000   23.1    41    0.00   701    1    100.0   30 
14/04/19  9:00a   13.5   13.5   12.7    91   12.1   0.0   SSW  0.00   3.2   SSW   13.5   13.6   13.6   17.8  1038.4  0.00   0.0   322    13.85    366     0.5  0.11   0.7   0.101   0.000   23.2    41    0.13   699    1    100.0   30 
14/04/19  9:30a   15.1   15.1   13.5    86   12.7   0.0   SSW  0.00   1.6   SSW   15.1   15.1   15.1   20.0  1038.4  0.00   0.0   407    17.50    448     0.9  0.19   1.1   0.068   0.000   23.2    42    0.00   701    1    100.0   30 
14/04/19 10:00a   16.8   16.8   15.1    76   12.6   0.0   SSW  0.00   3.2   SSW   16.8   16.8   16.8   22.2  1038.0  0.00   0.0   488    20.99    520     1.4  0.30   1.6   0.031   0.000   23.3    42    0.23   700    1    100.0   30 
14/04/19 10:30a   18.1   18.1   16.8    71   12.7   0.0   SSW  0.00   3.2   SSW   18.1   18.1   18.1   23.8  1037.7  0.00   0.0   563    24.21    603     1.9  0.41   2.1   0.006   0.000   23.4    42    0.00   702    1    100.0   30 
14/04/19 11:00a   19.1   19.1   18.1    69   13.2   0.0   SSW  0.00  17.7   SSW   19.1   19.2   19.2   24.9  1037.2  0.00   0.0   591    25.42    612     2.1  0.45   2.2   0.000   0.015   23.5    42    0.33   698    1    100.0   30 
14/04/19 11:30a   20.2   20.2   19.1    63   12.9   0.0     S  0.00   6.4     S   20.2   20.1   20.1   26.0  1036.7  0.00   0.0   630    27.09    647     2.5  0.54   2.6   0.000   0.038   23.5    42    0.00   664    1     97.1   30 
14/04/19 12:00p   21.2   21.2   20.2    59   12.8   0.0     S  0.00   3.2     S   21.2   20.7   20.7   26.7  1036.2  0.00   0.0   653    28.08    664     2.7  0.58   2.8   0.000   0.059   23.4    42    0.38   701    1    100.0   30 
14/04/19 12:30p   21.8   22.1   21.2    54   12.1   0.0     S  0.00   9.7     S   21.8   21.3   21.3   27.3  1035.7  0.00   0.0   664    28.56    668     2.8  0.60   2.9   0.000   0.073   23.4    42    0.00   702    1    100.0   30 
14/04/19  1:00p   22.8   22.8   21.7    51   12.1   0.0     S  0.00   8.0     S   22.8   22.6   22.6   28.5  1035.1  0.00   0.0   660    28.38    668     2.9  0.62   2.9   0.000   0.093   23.5    42    0.41   702    1    100.0   30 
14/04/19  1:30p   23.2   23.6   22.8    49   11.9   3.2     S  1.61  17.7     S   23.2   22.9   22.9   28.9  1034.5  0.00   0.0   637    27.39    649     2.7  0.58   2.8   0.000   0.101   23.5    41    0.00   700    1    100.0   30 
14/04/19  2:00p   24.2   24.3   23.2    45   11.5   1.6     S  0.80  12.9     S   24.2   23.9   23.9   29.8  1033.9  0.00   0.0   600    25.80    621     2.4  0.51   2.5   0.000   0.122   23.6    41    0.41   699    1    100.0   30 
14/04/19  2:30p   24.4   24.6   24.2    43   11.0   4.8     S  2.41  19.3     S   24.4   24.1   24.1   29.8  1033.7  0.00   0.0   549    23.61    577     2.0  0.43   2.2   0.000   0.127   23.6    41    0.00   700    1    100.0   30 
14/04/19  3:00p   25.4   25.4   24.4    40   10.8   4.8     S  2.41  17.7     S   25.4   24.9   24.9   30.4  1033.4  0.00   0.0   485    20.86    522     1.6  0.34   1.8   0.000   0.147   23.7    41    0.36   702    1    100.0   30 
14/04/19  3:30p   25.2   25.7   25.2    40   10.7   3.2     S  1.61  17.7     S   25.2   24.8   24.8   29.7  1033.2  0.00   0.0   374    16.08    461     1.1  0.24   1.3   0.000   0.144   23.8    40    0.00   698    1    100.0   30 
14/04/19  4:00p   25.6   25.6   25.1    43   12.1   1.6     S  0.80  14.5     S   25.6   25.3   25.3   29.7  1033.1  0.00   0.0   299    12.86    374     0.8  0.17   0.9   0.000   0.152   23.9    41    0.25   698    1    100.0   30 
14/04/19  4:30p   23.3   25.6   23.3    49   12.0   4.8    SW  2.41  19.3     S   23.3   23.1   23.1   27.1  1033.1  0.00   0.0   261    11.22    366     0.4  0.09   0.7   0.000   0.103   23.9    40    0.00   700    1    100.0   30 
14/04/19  5:00p   22.2   23.3   22.2    52   11.9   1.6    SW  0.80  19.3    SW   22.2   21.8   21.8   22.9  1033.0  0.00   0.0    84     3.61    181     0.0  0.00   0.0   0.000   0.081   23.9    41    0.13   700    1    100.0   30 
14/04/19  5:30p   21.6   22.2   21.6    56   12.4   0.0   ---  0.00   0.0   ---   21.6   21.0   21.0   20.1  1033.1  0.00   0.0    37     1.59     58     0.0  0.00   0.0   0.000   0.067   23.9    41    0.00   703    1    100.0   30 
14/04/19  6:00p   20.6   21.6   20.6    62   13.0   0.0   ---  0.00   0.0   ---   20.6   20.3   20.3   19.0  1033.3  0.00   0.0     7     0.30     21     0.0  0.00   0.0   0.000   0.046   23.9    41    0.03   701    1    100.0   30 
14/04/19  6:30p   19.2   20.6   19.2    67   12.9   0.0   ---  0.00   0.0   ---   19.2   19.2   19.2   17.8  1033.5  0.00   0.0     0     0.00      0     0.0  0.00   0.0   0.000   0.017   23.8    41    0.00   700    1    100.0   30 
14/04/19  7:00p   17.8   19.2   17.8    70   12.2   0.0   ---  0.00   0.0   ---   17.8   17.7   17.7   16.2  1033.7  0.00   0.0     0     0.00      0     0.0  0.00   0.0   0.012   0.000   23.7    42    0.03   701    1    100.0   30 
14/04/19  7:30p   16.8   17.8   16.8    75   12.3   0.0   ---  0.00   0.0   ---   16.8   16.7   16.7   15.2  1033.7  0.00   0.0     0     0.00      0     0.0  0.00   0.0   0.032   0.000   23.7    42    0.00   701    1    100.0   30 
14/04/19  8:00p   15.9   16.8   15.9    77   11.9   0.0   ---  0.00   0.0   ---   15.9   15.8   15.8   14.4  1033.8  0.00   0.0     0     0.00      0     0.0  0.00   0.0   0.050   0.000   23.6    43    0.03   701    1    100.0   30 
14/04/19  8:30p   15.2   15.9   15.2    80   11.8   0.0   ---  0.00   0.0   ---   15.2   15.1   15.1   13.7  1033.9  0.00   0.0     0     0.00      0     0.0  0.00   0.0   0.065   0.000   23.6    43    0.00   697    1    100.0   30 
14/04/19  9:00p   14.4   15.2   14.4    82   11.4   0.0   ---  0.00   0.0   ---   14.4   14.3   14.3   12.8  1034.0  0.00   0.0     0     0.00      0     0.0  0.00   0.0   0.081   0.000   23.5    44    0.03   701    1    100.0   30 
14/04/19  9:30p   13.7   14.4   13.7    84   11.1   0.0   ---  0.00   0.0   ---   13.7   13.7   13.7   12.2  1034.1  0.00   0.0     0     0.00      0     0.0  0.00   0.0   0.096   0.000   23.5    44    0.00   700    1    100.0   30 
14/04/19 10:00p   13.2   13.7   13.2    86   10.9   0.0   ---  0.00   0.0   ---   13.2   13.1   13.1   11.6  1034.2  0.00   0.0     0     0.00      0     0.0  0.00   0.0   0.108   0.000   23.5    45    0.00   701    1    100.0   30 
14/04/19 10:30p   12.7   13.2   12.7    87   10.6   0.0   ---  0.00   0.0   ---   12.7   12.7   12.7   11.2  1034.2  0.00   0.0     0     0.00      0     0.0  0.00   0.0   0.118   0.000   23.4    45    0.00   702    1    100.0   30 
14/04/19 11:00p   12.1   12.7   12.1    88   10.2   0.0   ---  0.00   0.0   ---   12.1   12.1   12.1   10.6  1034.0  0.00   0.0     0     0.00      0     0.0  0.00   0.0   0.130   0.000   23.3    45    0.00   700    1    100.0   30 
14/04/19 11:30p   11.6   12.1   11.6    89    9.9   0.0   ---  0.00   0.0   ---   11.6   11.7   11.7   10.1  1033.9  0.00   0.0     0     0.00      0     0.0  0.00   0.0   0.140   0.000   23.4    45    0.00   702    1    100.0   30 
15/04/19 12:00a   11.3   11.6   11.3    89    9.5   0.0   ---  0.00   0.0   ---   11.3   11.3   11.3    9.8  1034.1  0.00   0.0     0     0.00      0     0.0  0.00   0.0   0.147   0.000   23.2    45    0.00   699    1    100.0   30 
15/04/19 12:30a   11.0   11.3   11.0    90    9.4   0.0   ---  0.00   0.0   ---   11.0   11.1   11.1    9.6  1034.1  0.00   0.0     0     0.00      0     0.0  0.00   0.0   0.153   0.000   23.3    44    0.00   702    1    100.0   30 
15/04/19  1:00a   11.2   11.2   11.0    90    9.6   0.0   ---  0.00   0.0   ---   11.2   11.3   11.3    9.8  1034.2  0.00   0.0     0     0.00      0     0.0  0.00   0.0   0.148   0.000   23.2    44    0.00   700    1    100.0   30 
15/04/19  1:30a   11.3   11.3   11.2    89    9.5   0.0   ---  0.00   0.0   ---   11.3   11.3   11.3    9.8  1034.2  0.00   0.0     0     0.00      0     0.0  0.00   0.0   0.147   0.000   23.2    43    0.00   700    1    100.0   30 
15/04/19  2:00a   11.7   11.7   11.3    88    9.7   0.0   ---  0.00   0.0   ---   11.7   11.7   11.7   10.1  1034.0  0.00   0.0     0     0.00      0     0.0  0.00   0.0   0.139   0.000   23.2    43    0.00   703    1    100.0   30 
15/04/19  2:30a   12.1   12.1   11.7    86    9.8   0.0   ---  0.00   0.0   ---   12.1   12.1   12.1   10.5  1033.8  0.00   0.0     0     0.00      0     0.0  0.00   0.0   0.130   0.000   23.1    43    0.00   700    1    100.0   30 
15/04/19  3:00a   12.4   12.4   12.1    85   10.0   0.0   ---  0.00   0.0   ---   12.4   12.4   12.4   10.8  1033.5  0.00   0.0     0     0.00      0     0.0  0.00   0.0   0.123   0.000   23.2    42    0.00   700    1    100.0   30 
15/04/19  3:30a   12.8   12.8   12.4    83   10.0   0.0   ---  0.00   0.0   ---   12.8   12.7   12.7   11.1  1033.5  0.00   0.0     0     0.00      0     0.0  0.00   0.0   0.116   0.000   23.2    43    0.00   700    1    100.0   30 
15/04/19  4:00a   13.1   13.1   12.8    82   10.1   0.0   ---  0.00   0.0   ---   13.1   12.9   12.9   11.4  1033.7  0.00   0.0     0     0.00      0     0.0  0.00   0.0   0.110   0.000   23.1    43    0.00   669    1     97.8   30 
15/04/19  4:30a   13.1   13.1   13.0    82   10.1   0.0   ---  0.00   0.0   ---   13.1   12.9   12.9   11.4  1033.7  0.00   0.0     0     0.00      0     0.0  0.00   0.0   0.110   0.000   23.1    42    0.00   699    1    100.0   30 
15/04/19  5:00a   12.9   13.1   12.8    83   10.1   0.0   ---  0.00   0.0   ---   12.9   12.8   12.8   11.3  1033.7  0.00   0.0     0     0.00      0     0.0  0.00   0.0   0.113   0.000   23.2    42    0.03   698    1    100.0   30 
15/04/19  5:30a   12.4   12.9   12.4    83    9.6   0.0   ---  0.00   0.0   ---   12.4   12.3   12.3   10.7  1033.8  0.00   0.0     0     0.00      0     0.0  0.00   0.0   0.124   0.000   23.1    43    0.00   701    1    100.0   30 
15/04/19  6:00a   11.8   12.4   11.7    85    9.3   0.0   ---  0.00   0.0   ---   11.8   11.7   11.7   10.2  1033.9  0.00   0.0     0     0.00      0     0.0  0.00   0.0   0.137   0.000   23.1    42    0.00   701    1    100.0   30 
15/04/19  6:30a   11.2   11.8   11.2    87    9.1   0.0   ---  0.00   0.0   ---   11.2   11.3   11.3    9.7  1034.0  0.00   0.0     0     0.00      0     0.0  0.00   0.0   0.148   0.000   23.2    42    0.00   700    1    100.0   30 
15/04/19  7:00a   11.4   11.4   11.2    88    9.5   0.0   ---  0.00   0.0   ---   11.4   11.5   11.5   10.1  1034.2  0.00   0.0     9     0.39     25     0.0  0.00   0.0   0.144   0.000   23.1    42    0.00   698    1    100.0   30 
15/04/19  7:30a   12.5   12.5   11.4    87   10.4   0.0   ---  0.00   0.0   ---   12.5   12.5   12.5   12.8  1034.6  0.00   0.0    53     2.28     86     0.0  0.00   0.0   0.122   0.000   23.1    42    0.00   700    1    100.0   30 
15/04/19  8:00a   13.6   13.6   12.5    83   10.7   0.0   ---  0.00   0.0   ---   13.6   13.4   13.4   14.1  1034.9  0.00   0.0    77     3.31    171     0.0  0.00   0.0   0.100   0.000   23.1    42    0.03   699    1    100.0   30 
15/04/19  8:30a   15.7   15.7   13.6    78   11.8   0.0   ---  0.00   0.0   ---   15.7   15.6   15.6   17.9  1035.0  0.00   0.0   174     7.48    297     0.0  0.00   0.0   0.056   0.000   23.2    42    0.00   701    1    100.0   30 
15/04/19  9:00a   16.9   16.9   15.7    74   12.3   0.0   ---  0.00   0.0   ---   16.9   16.8   16.8   18.1  1034.9  0.00   0.0   124     5.33    167     0.0  0.00   0.5   0.029   0.000   23.3    42    0.08   701    1    100.0   30 
15/04/19  9:30a   18.2   18.2   16.9    70   12.7   0.0   ---  0.00   0.0   ---   18.2   18.2   18.2   20.3  1034.8  0.00   0.0   191     8.21    214     0.6  0.13   0.6   0.002   0.000   23.3    42    0.00   701    1    100.0   30 
15/04/19 10:00a   19.1   19.1   18.2    67   12.8   0.0   ---  0.00   0.0   ---   19.1   19.1   19.1   21.1  1034.6  0.00   0.0   188     8.09    195     0.7  0.15   0.8   0.000   0.016   23.4    42    0.10   701    1    100.0   30 
15/04/19 10:30a   19.9   19.9   19.1    64   12.9   0.0   ---  0.00   0.0   ---   19.9   19.9   19.9   21.7  1034.3  0.00   0.0   186     8.00    197     0.8  0.17   0.9   0.000   0.032   23.3    42    0.00   701    1    100.0   30 
15/04/19 11:00a   22.4   22.4   19.9    53   12.3   3.2    NW  1.61  25.7     W   22.4   22.1   22.1   25.0  1033.7  0.00   0.0   280    12.04    350     1.3  0.28   1.7   0.000   0.084   23.3    41    0.15   703    1    100.0   30 
15/04/19 11:30a   23.7   23.7   22.4    50   12.6   4.8   NNE  2.41  27.4    NW   23.7   23.6   23.6   28.1  1033.4  0.00   0.0   432    18.58    895     2.2  0.47   3.1   0.000   0.111   23.3    42    0.00   672    1     98.2   30 
15/04/19 12:00p   24.7   24.7   23.7    46   12.3   4.8   NNE  2.41  29.0   NNE   24.7   24.5   24.5   30.6  1032.9  0.00   0.0   714    30.71    898     2.9  0.62   3.1   0.000   0.133   23.3    42    0.41   702    1    100.0   30 
15/04/19 12:30p   25.1   25.1   24.6    45   12.3   1.6   NNW  0.80  22.5   NNW   25.1   24.8   24.8   29.3  1032.3  0.00   0.0   440    18.92    780     2.5  0.54   3.1   0.000   0.141   23.4    42    0.00   702    1    100.0   30 
15/04/19  1:00p   25.9   25.9   25.2    43   12.4   1.6   NNW  0.80  19.3   NNW   25.9   25.7   25.7   29.8  1031.8  0.00   0.0   401    17.25    677     2.4  0.51   3.1   0.000   0.159   23.4    42    0.30   700    1    100.0   30 
15/04/19  1:30p   26.9   27.0   25.9    39   11.8   6.4     N  3.22  27.4     N   26.9   26.3   26.3   32.2  1031.3  0.00   0.0   688    29.59    872     2.8  0.60   3.2   0.000   0.179   23.6    42    0.00   700    1    100.0   30 
15/04/19  2:00p   27.3   27.3   26.7    37   11.4   8.0     N  4.02  33.8     N   27.3   26.6   26.6   32.5  1031.2  0.00   0.0   637    27.39    670     2.4  0.51   2.6   0.000   0.187   23.7    42    0.48   701    1    100.0   30 
15/04/19  2:30p   27.2   27.7   27.2    37   11.3   8.0   NNE  4.02  30.6    NE   27.2   26.5   26.5   32.3  1030.9  0.00   0.0   560    24.08    598     2.1  0.45   2.2   0.000   0.185   23.9    42    0.00   701    1    100.0   30 
15/04/19  3:00p   27.0   27.8   27.0    37   11.1   8.0     N  4.02  27.4   NNE   27.0   26.3   26.3   31.3  1030.8  0.00   0.0   413    17.76    547     1.5  0.32   1.9   0.000   0.181   24.1    42    0.38   702    1    100.0   30 
15/04/19  3:30p   27.6   27.7   26.9    35   10.7   6.4     N  3.22  25.7     N   27.6   26.8   26.8   31.9  1030.7  0.00   0.0   396    17.03    443     1.2  0.26   1.3   0.000   0.192   24.3    42    0.00   694    1    100.0   30 
15/04/19  4:00p   27.3   27.5   27.1    33    9.6   8.0   NNE  4.02  25.7   NNE   27.3   26.4   26.4   30.1  1030.6  0.00   0.0   258    11.10    345     0.8  0.17   1.0   0.000   0.187   24.4    42    0.28   685    1    100.0   30 
15/04/19  4:30p   26.7   27.3   26.7    34    9.6   4.8     N  2.41  22.5     N   26.7   25.8   25.8   28.2  1030.5  0.00   0.0   161     6.92    188     0.2  0.04   0.6   0.000   0.175   24.4    42    0.00   700    1    100.0   30 
15/04/19  5:00p   26.2   26.7   26.2    36   10.0   1.6     N  0.80  19.3     N   26.2   25.6   25.6   26.9  1030.7  0.00   0.0   103     4.43    163     0.0  0.00   0.0   0.000   0.164   24.4    42    0.13   701    1    100.0   30 
15/04/19  5:30p   25.2   26.2   25.2    38    9.9   0.0     N  0.00   6.4     N   25.2   24.7   24.7   23.6  1030.8  0.00   0.0    38     1.63     62     0.0  0.00   0.0   0.000   0.144   24.5    42    0.00   700    1    100.0   30 
15/04/19  6:00p   23.2   25.2   23.2    44   10.3   0.0   ---  0.00   0.0   ---   23.2   22.8   22.8   21.3  1031.1  0.00   0.0     5     0.22     19     0.0  0.00   0.0   0.000   0.102   24.4    42    0.03   701    1    100.0   30 
15/04/19  6:30p   21.1   23.2   21.1    50   10.2   0.0   ---  0.00   0.0   ---   21.1   20.1   20.1   18.6  1031.6  0.00   0.0     0     0.00      0     0.0  0.00   0.0   0.000   0.057   24.2    41    0.00   700    1    100.0   30 
15/04/19  7:00p   19.7   21.1   19.7    56   10.6   0.0   ---  0.00   0.0   ---   19.7   19.2   19.2   17.7  1031.8  0.00   0.0     0     0.00      0     0.0  0.00   0.0   0.000   0.028   24.1    41    0.05   703    1    100.0   30 
15/04/19  7:30p   19.0   19.7   19.0    58   10.5   0.0   ---  0.00   0.0   ---   19.0   18.6   18.6   17.0  1032.1  0.00   0.0     0     0.00      0     0.0  0.00   0.0   0.000   0.014   23.9    41    0.00   698    1    100.0   30 
15/04/19  8:00p   18.7   18.9   18.7    59   10.5   0.0   ---  0.00   0.0   ---   18.7   18.3   18.3   16.7  1032.2  0.00   0.0     0     0.00      0     0.0  0.00   0.0   0.000   0.008   23.8    41    0.05   701    1    100.0   30 
15/04/19  8:30p   17.7   18.7   17.7    64   10.8   0.0   ---  0.00   0.0   ---   17.7   17.3   17.3   15.8  1032.2  0.00   0.0     0     0.00      0     0.0  0.00   0.0   0.014   0.000   23.7    42    0.00   696    1    100.0   30 
15/04/19  9:00p   16.7   17.7   16.7    67   10.5   0.0   ---  0.00   0.0   ---   16.7   16.3   16.3   14.8  1032.5  0.00   0.0     0     0.00      0     0.0  0.00   0.0   0.035   0.000   23.7    42    0.03   700    1    100.0   30 
15/04/19  9:30p   16.1   16.7   16.1    69   10.4   0.0   ---  0.00   0.0   ---   16.1   15.8   15.8   14.2  1032.9  0.00   0.0     0     0.00      0     0.0  0.00   0.0   0.046   0.000   23.6    43    0.00   701    1    100.0   30 
15/04/19 10:00p   15.7   16.1   15.7    71   10.4   0.0   ---  0.00   0.0   ---   15.7   15.3   15.3   13.8  1032.9  0.00   0.0     0     0.00      0     0.0  0.00   0.0   0.056   0.000   23.6    43    0.03   700    1    100.0   30 
15/04/19 10:30p   15.4   15.7   15.4    73   10.6   0.0   ---  0.00   0.0   ---   15.4   15.1   15.1   13.6  1033.2  0.00   0.0     0     0.00      0     0.0  0.00   0.0   0.061   0.000   23.5    44    0.00   703    1    100.0   30 
15/04/19 11:00p   15.0   15.4   15.0    74   10.4   0.0   ---  0.00   0.0   ---   15.0   14.7   14.7   13.2  1033.1  0.00   0.0     0     0.00      0     0.0  0.00   0.0   0.069   0.000   23.5    44    0.03   700    1    100.0   30 
15/04/19 11:30p   14.8   15.0   14.8    76   10.6   0.0   ---  0.00   0.0   ---   14.8   14.6   14.6   13.0  1032.8  0.00   0.0     0     0.00      0     0.0  0.00   0.0   0.074   0.000   23.5    44    0.00   700    1    100.0   30 
16/04/19 12:00a   14.8   14.9   14.7    77   10.8   0.0   ---  0.00   0.0   ---   14.8   14.6   14.6   13.0  1032.8  0.00   0.0     0     0.00      0     0.0  0.00   0.0   0.074   0.000   23.4    44    0.03   702    1    100.0   30 
16/04/19 12:30a   14.7   14.8   14.7    78   10.9   0.0   ---  0.00   0.0   ---   14.7   14.6   14.6   13.0  1032.9  0.00   0.0     0     0.00      0     0.0  0.00   0.0   0.075   0.000   23.4    45    0.00   699    1    100.0   30 
16/04/19  1:00a   14.8   14.8   14.7    76   10.6   0.0   ---  0.00   0.0   ---   14.8   14.6   14.6   13.1  1032.7  0.00   0.0     0     0.00      0     0.0  0.00   0.0   0.073   0.000   23.5    45    0.03   702    1    100.0   30 
16/04/19  1:30a   15.0   15.1   14.8    76   10.8   0.0   ---  0.00   0.0   ---   15.0   14.8   14.8   13.2  1032.6  0.00   0.0     0     0.00      0     0.0  0.00   0.0   0.069   0.000   23.4    45    0.00   701    1    100.0   30 
16/04/19  2:00a   14.8   15.0   14.8    77   10.8   0.0   ---  0.00   0.0   ---   14.8   14.6   14.6   13.1  1032.5  0.00   0.0     0     0.00      0     0.0  0.00   0.0   0.073   0.000   23.4    45    0.03   702    1    100.0   30 
16/04/19  2:30a   14.7   14.8   14.7    78   10.9   0.0   ---  0.00   0.0   ---   14.7   14.6   14.6   13.0  1032.2  0.00   0.0     0     0.00      0     0.0  0.00   0.0   0.075   0.000   23.4    45    0.00   700    1    100.0   30 
16/04/19  3:00a   14.7   14.7   14.6    78   10.9   0.0   ---  0.00   0.0   ---   14.7   14.6   14.6   13.0  1032.2  0.00   0.0     0     0.00      0     0.0  0.00   0.0   0.075   0.000   23.4    44    0.03   700    1    100.0   30 
16/04/19  3:30a   15.5   15.5   14.7    75   11.1   0.0   ---  0.00   0.0   ---   15.5   15.3   15.3   13.7  1032.0  0.00   0.0     0     0.00      0     0.0  0.00   0.0   0.059   0.000   23.4    44    0.00   701    1    100.0   30 
16/04/19  4:00a   15.6   15.7   15.5    76   11.3   0.0   ---  0.00   0.0   ---   15.6   15.4   15.4   13.9  1032.2  0.00   0.0     0     0.00      0     0.0  0.00   0.0   0.058   0.000   23.4    44    0.00   701    1    100.0   30 
16/04/19  4:30a   15.5   15.6   15.5    76   11.3   0.0   ---  0.00   0.0   ---   15.5   15.3   15.3   13.8  1032.5  0.00   0.0     0     0.00      0     0.0  0.00   0.0   0.059   0.000   23.3    44    0.03   702    1    100.0   30 
16/04/19  5:00a   16.2   16.2   15.5    73   11.3   0.0   ---  0.00   0.0   ---   16.2   15.9   15.9   14.4  1032.6  0.00   0.0     0     0.00      0     0.0  0.00   0.0   0.045   0.000   23.4    44    0.03   664    1     97.1   30 
16/04/19  5:30a   16.2   16.2   16.2    73   11.3   0.0   ---  0.00   0.0   ---   16.2   15.9   15.9   14.4  1033.1  0.00   0.0     0     0.00      0     0.0  0.00   0.0   0.045   0.000   23.3    44    0.00   702    1    100.0   30 
16/04/19  6:00a   15.8   16.2   15.8    74   11.2   0.0   ---  0.00   0.0   ---   15.8   15.6   15.6   14.1  1033.6  0.00   0.0     0     0.00      0     0.0  0.00   0.0   0.052   0.000   23.3    44    0.03   701    1    100.0   30 
16/04/19  6:30a   15.2   15.8   15.2    76   11.0   0.0   ---  0.00   0.0   ---   15.2   14.9   14.9   13.4  1033.7  0.00   0.0     0     0.00      0     0.0  0.00   0.0   0.066   0.000   23.3    44    0.00   702    1    100.0   30 
16/04/19  7:00a   16.3   16.3   15.2    72   11.3   0.0     N  0.00  12.9     N   16.3   16.1   16.1   14.6  1033.8  0.00   0.0     2     0.09     11     0.0  0.00   0.0   0.042   0.000   23.3    44    0.00   699    1    100.0   30 
16/04/19  7:30a   19.7   19.7   16.3    58   11.2   0.0     N  0.00   9.7     N   19.7   19.3   19.3   18.9  1034.1  0.00   0.0    27     1.16     46     0.0  0.00   0.0   0.000   0.028   23.2    44    0.00   701    1    100.0   30 
16/04/19  8:00a   20.9   20.9   19.7    53   11.0   0.0   NNW  0.00   3.2   NNW   20.9   20.2   20.2   20.8  1034.3  0.00   0.0    73     3.14     91     0.0  0.00   0.0   0.000   0.054   23.2    43    0.03   701    1    100.0   30 
16/04/19  8:30a   22.8   22.8   21.0    47   10.9   0.0     N  0.00  16.1     N   22.8   22.4   22.4   23.4  1034.6  0.00   0.0   103     4.43    128     0.0  0.00   0.0   0.000   0.093   23.3    44    0.00   700    1    100.0   30 
16/04/19  9:00a   23.8   23.8   22.8    44   10.8   1.6     N  0.80  24.1   NNE   23.8   23.5   23.5   26.4  1034.5  0.00   0.0   221     9.50    401     0.6  0.13   0.9   0.000   0.113   23.2    43    0.13   702    1    100.0   30 
16/04/19  9:30a   24.8   24.8   23.8    42   11.0   8.0   NNE  4.02  38.6    NE   24.8   24.4   24.4   29.3  1034.4  0.00   0.0   407    17.50    446     1.1  0.24   1.3   0.000   0.134   23.2    43    0.00   698    1    100.0   30 
16/04/19 10:00a   25.4   25.4   24.8    39   10.4  11.3   NNE  5.63  46.7    NE   25.4   24.9   24.9   30.1  1034.0  0.00   0.0   479    20.60    508     1.6  0.34   1.8   0.000   0.147   23.3    43    0.38   677    1     99.0   30 
16/04/19 10:30a   26.6   26.6   25.4    36   10.3   9.7   NNE  4.83  43.5    NE   26.6   25.8   25.8   31.3  1033.5  0.00   0.0   541    23.27    570     2.0  0.43   2.3   0.000   0.172   23.3    43    0.00   702    1    100.0   30 
16/04/19 11:00a   26.9   27.0   26.6    35   10.2  16.1   NNE  8.05  40.2    NE   26.9   26.1   25.5   30.4  1033.3  0.00   0.0   594    25.55    613     2.5  0.54   2.7   0.000   0.179   23.4    43    0.00   699    1    100.0   30 
16/04/19 11:30a   27.7   27.7   26.9    34   10.4  14.5   NNE  7.24  41.8    NE   27.7   26.8   26.3   31.6  1033.0  0.00   0.0   634    27.27    656     2.8  0.60   3.0   0.000   0.194   23.6    43    0.51   700    1    100.0   30 
16/04/19 12:00p   27.8   28.1   27.7    33   10.1  16.1   NNE  8.05  43.5    NE   27.8   27.0   26.4   31.4  1032.7  0.00   0.0   605    26.02    766     2.9  0.62   3.2   0.000   0.198   23.7    42    0.56   699    1    100.0   30 
16/04/19 12:30p   28.6   28.6   27.8    31    9.8  11.3     N  5.63  32.2    NE   28.6   27.7   27.7   32.4  1032.4  0.00   0.0   495    21.29    754     2.7  0.58   3.3   0.000   0.214   23.8    42    0.00   703    1    100.0   30 
16/04/19  1:00p   29.3   29.4   28.6    29    9.4  12.9   NNE  6.44  45.1   NNE   29.3   28.3   28.1   33.6  1032.1  0.00   0.0   697    29.97    788     3.2  0.69   3.5   0.000   0.229   24.0    42    0.53   701    1    100.0   30 
16/04/19  1:30p   29.7   29.7   29.3    29    9.7  14.5   NNE  7.24  35.4   NNE   29.7   28.6   28.2   33.5  1031.5  0.00   0.0   631    27.14    650     3.0  0.64   3.1   0.000   0.236   24.1    42    0.00   700    1    100.0   30 
16/04/19  2:00p   30.3   30.4   29.7    27    9.2  12.9   NNE  6.44  43.5    NE   30.3   29.1   28.9   34.2  1031.1  0.00   0.0   592    25.46    610     2.7  0.58   2.8   0.000   0.250   24.2    42    0.58   691    1    100.0   30 
16/04/19  2:30p   30.6   30.7   30.3    26    8.9  14.5   NNE  7.24  43.5    NE   30.6   29.2   28.8   33.9  1031.0  0.00   0.0   543    23.35    568     2.2  0.47   2.5   0.000   0.256   24.4    41    0.00   690    1    100.0   30 
16/04/19  3:00p   30.3   30.8   30.3    26    8.7  16.1     N  8.05  40.2    NE   30.3   28.9   28.6   33.3  1030.9  0.00   0.0   489    21.03    517     1.8  0.39   2.0   0.000   0.250   24.6    41    0.00   701    1    100.0   30 
16/04/19  3:30p   30.4   30.4   30.1    26    8.8  11.3   NNE  5.63  30.6    NE   30.4   29.1   29.1   33.6  1030.9  0.00   0.0   356    15.31    483     1.3  0.28   1.6   0.000   0.252   24.6    40    0.53   699    1    100.0   30 
16/04/19  4:00p   30.1   30.6   30.1    27    9.0  14.5   NNE  7.24  37.0   NNE   30.1   28.8   28.5   32.6  1030.9  0.00   0.0   317    13.63    360     0.9  0.19   1.1   0.000   0.244   24.7    40    0.41   682    1     99.7   30 
16/04/19  4:30p   29.8   30.1   29.8    27    8.8  12.9   NNE  6.44  33.8   NNE   29.8   28.5   28.3   31.6  1030.8  0.00   0.0   225     9.68    271     0.6  0.13   0.8   0.000   0.238   24.7    39    0.00   702    1    100.0   30 
16/04/19  5:00p   29.1   29.8   29.1    27    8.2  14.5   NNE  7.24  40.2    NE   29.1   27.8   27.4   28.9  1030.9  0.00   0.0   123     5.29    172     0.0  0.00   0.5   0.000   0.223   24.6    39    0.30   702    1    100.0   30 
16/04/19  5:30p   28.2   29.1   28.2    29    8.5   3.2   NNW  1.61  27.4   NNE   28.2   27.1   27.1   25.8  1031.0  0.00   0.0    35     1.51     49     0.0  0.00   0.0   0.000   0.206   24.6    39    0.00   700    1    100.0   30 
16/04/19  6:00p   27.3   28.2   27.3    32    9.2   1.6     N  0.80  22.5     N   27.3   26.3   26.3   24.7  1031.2  0.00   0.0     7     0.30     21     0.0  0.00   0.0   0.000   0.187   24.6    37    0.08   679    1     99.3   30 
16/04/19  6:30p   26.9   27.3   26.9    34    9.7   1.6     N  0.80  22.5     N   26.9   26.0   26.0   24.3  1031.7  0.00   0.0     0     0.00      0     0.0  0.00   0.0   0.000   0.178   24.3    36    0.00   699    1    100.0   30 
16/04/19  7:00p   26.0   26.9   26.0    36    9.8   0.0     N  0.00   4.8     N   26.0   25.4   25.4   23.7  1031.9  0.00   0.0     0     0.00      0     0.0  0.00   0.0   0.000   0.160   24.1    36    0.08   701    1    100.0   30 
16/04/19  7:30p   25.6   26.0   25.5    37    9.8   0.0     N  0.00   3.2     N   25.6   24.9   24.9   23.3  1032.0  0.00   0.0     0     0.00      0     0.0  0.00   0.0   0.000   0.150   24.0    37    0.00   698    1    100.0   30 
16/04/19  8:00p   24.9   25.6   24.9    39   10.0   0.0     N  0.00   9.7     N   24.9   24.4   24.4   22.8  1032.1  0.00   0.0     0     0.00      0     0.0  0.00   0.0   0.000   0.138   24.1    38    0.08   699    1    100.0   30 
16/04/19  8:30p   24.0   24.9   24.0    41    9.9   0.0   ---  0.00   0.0   ---   24.0   23.6   23.6   21.9  1032.2  0.00   0.0     0     0.00      0     0.0  0.00   0.0   0.000   0.118   24.0    38    0.00   675    1     98.7   30 
16/04/19  9:00p   24.6   24.6   24.0    40   10.1   0.0   NNW  0.00  20.9   NNW   24.6   24.1   24.1   22.5  1032.3  0.00   0.0     0     0.00      0     0.0  0.00   0.0   0.000   0.131   24.0    38    0.05   701    1    100.0   30 
16/04/19  9:30p   24.0   24.7   24.0    42   10.3   0.0   NNW  0.00   6.4   NNW   24.0   23.7   23.7   22.1  1032.3  0.00   0.0     0     0.00      0     0.0  0.00   0.0   0.000   0.118   24.0    39    0.00   702    1    100.0   30 
16/04/19 10:00p   23.5   24.0   23.5    44   10.5   0.0   NNW  0.00  12.9   NNW   23.5   23.2   23.2   21.6  1032.3  0.00   0.0     0     0.00      0     0.0  0.00   0.0   0.000   0.108   23.9    39    0.05   703    1    100.0   30 
16/04/19 10:30p   23.3   23.5   23.1    45   10.7   0.0   NNW  0.00  19.3   NNW   23.3   23.0   23.0   21.4  1032.1  0.00   0.0     0     0.00      0     0.0  0.00   0.0   0.000   0.104   23.9    39    0.00   702    1    100.0   30 
16/04/19 11:00p   23.4   23.6   23.3    45   10.8   0.0   NNW  0.00  12.9   NNW   23.4   23.1   23.1   21.4  1031.8  0.00   0.0     0     0.00      0     0.0  0.00   0.0   0.000   0.105   23.8    39    0.05   676    1     98.8   30 
16/04/19 11:30p   23.2   23.4   23.1    45   10.6   0.0   NNW  0.00  14.5   NNW   23.2   22.8   22.8   21.2  1031.5  0.00   0.0     0     0.00      0     0.0  0.00   0.0   0.000   0.102   23.8    40    0.00   699    1    100.0   30 
17/04/19 12:00a   23.6   23.6   23.2    44   10.6   0.0   NNW  0.00  14.5   NNW   23.6   23.2   23.2   21.6  1031.3  0.00   0.0     0     0.00      0     0.0  0.00   0.0   0.000   0.109   23.8    41    0.05   699    1    100.0   30 
17/04/19 12:30a   23.8   23.8   23.6    44   10.8   0.0   NNW  0.00  20.9   NNW   23.8   23.6   23.6   22.0  1031.3  0.00   0.0     0     0.00      0     0.0  0.00   0.0   0.000   0.115   23.7    41    0.00   699    1    100.0   30 
17/04/19  1:00a   23.9   23.9   23.5    43   10.5   0.0     N  0.00  24.1     N   23.9   23.6   23.6   22.0  1031.2  0.00   0.0     0     0.00      0     0.0  0.00   0.0   0.000   0.116   23.7    40    0.05   700    1    100.0   30 
17/04/19  1:30a   24.3   24.3   23.9    42   10.5   1.6     N  0.80  22.5     N   24.3   23.9   23.9   22.3  1031.2  0.00   0.0     0     0.00      0     0.0  0.00   0.0   0.000   0.124   23.6    41    0.00   702    1    100.0   30 
17/04/19  2:00a   24.4   24.4   24.2    42   10.7   3.2   NNE  1.61  29.0   NNE   24.4   24.1   24.1   22.4  1031.1  0.00   0.0     0     0.00      0     0.0  0.00   0.0   0.000   0.127   23.6    40    0.08   699    1    100.0   30 
17/04/19  2:30a   24.5   24.6   24.4    42   10.7   4.8   NNE  2.41  27.4   NNE   24.5   24.1   24.1   22.5  1030.9  0.00   0.0     0     0.00      0     0.0  0.00   0.0   0.000   0.128   23.6    41    0.00   700    1    100.0   30 
17/04/19  3:00a   24.4   24.5   24.4    42   10.7   3.2   NNE  1.61  35.4     N   24.4   24.1   24.1   22.4  1030.7  0.00   0.0     0     0.00      0     0.0  0.00   0.0   0.000   0.127   23.5    41    0.08   699    1    100.0   30 
17/04/19  3:30a   24.4   24.4   24.3    42   10.7   8.0   NNE  4.02  41.8    NE   24.4   24.1   24.1   22.4  1030.4  0.00   0.0     0     0.00      0     0.0  0.00   0.0   0.000   0.127   23.6    40    0.00   701    1    100.0   30 
17/04/19  4:00a   24.4   24.6   24.4    42   10.6   9.7   NNE  4.83  38.6   NNE   24.4   24.0   24.0   22.4  1030.5  0.00   0.0     0     0.00      0     0.0  0.00   0.0   0.000   0.126   23.6    41    0.13   701    1    100.0   30 
17/04/19  4:30a   24.3   24.4   24.3    42   10.5   9.7   NNE  4.83  35.4   NNE   24.3   23.9   23.9   22.3  1030.4  0.00   0.0     0     0.00      0     0.0  0.00   0.0   0.000   0.124   23.6    41    0.00   703    1    100.0   30 
17/04/19  5:00a   23.9   24.3   23.9    43   10.5   4.8   NNE  2.41  33.8   NNE   23.9   23.6   23.6   22.0  1030.6  0.00   0.0     0     0.00      0     0.0  0.00   0.0   0.000   0.116   23.6    41    0.10   699    1    100.0   30 
17/04/19  5:30a   23.4   23.9   23.3    44   10.5   1.6   NNE  0.80  35.4   NNE   23.4   23.1   23.1   21.5  1031.0  0.00   0.0     0     0.00      0     0.0  0.00   0.0   0.000   0.106   23.7    41    0.00   697    1    100.0   30 
17/04/19  6:00a   23.6   23.6   23.4    44   10.6   3.2    NE  1.61  25.7    NE   23.6   23.2   23.2   21.6  1031.3  0.00   0.0     0     0.00      0     0.0  0.00   0.0   0.000   0.109   23.6    42    0.08   702    1    100.0   30 
17/04/19  6:30a   23.6   23.6   23.5    43   10.2   3.2     N  1.61  25.7   NNE   23.6   23.2   23.2   21.6  1031.5  0.00   0.0     0     0.00      0     0.0  0.00   0.0   0.000   0.109   23.6    42    0.00   701    1    100.0   30 
17/04/19  7:00a   23.7   23.7   23.6    43   10.4   9.7   NNE  4.83  40.2   NNE   23.7   23.4   23.4   21.8  1031.3  0.00   0.0     6     0.26     18     0.0  0.00   0.0   0.000   0.112   23.6    41    0.08   700    1    100.0   30 
17/04/19  7:30a   23.8   23.8   23.7    43   10.4  12.9   NNE  6.44  46.7   NNE   23.8   23.5   23.0   22.9  1031.1  0.00   0.0    35     1.51     54     0.0  0.00   0.0   0.000   0.113   23.5    41    0.00   699    1    100.0   30 
17/04/19  8:00a   23.8   23.9   23.7    42   10.1  14.5   NNE  7.24  57.9    NE   23.8   23.5   22.7   23.6  1031.4  0.00   0.0    87     3.74    141     0.0  0.00   0.0   0.000   0.115   23.5    41    0.15   682    1     99.7   30 
17/04/19  8:30a   24.1   24.1   23.8    42   10.3  12.9   NNE  6.44  43.5    NE   24.1   23.7   23.3   24.2  1031.6  0.00   0.0    97     4.17    192     0.0  0.00   0.0   0.000   0.119   23.5    41    0.00   701    1    100.0   30 
17/04/19  9:00a   25.2   25.2   24.1    39   10.2  14.5     N  7.24  49.9    NE   25.2   24.7   24.0   27.4  1031.5  0.00   0.0   286    12.30    366     0.7  0.15   0.9   0.000   0.142   23.6    41    0.25   700    1    100.0   30 
17/04/19  9:30a   26.1   26.1   25.2    37   10.2  16.1   NNE  8.05  57.9    NE   26.1   25.5   24.8   29.5  1031.2  0.00   0.0   470    20.21    598     1.2  0.26   1.5   0.000   0.161   23.7    40    0.00   699    1    100.0   30 
17/04/19 10:00a   26.3   26.3   26.1    36   10.0  16.1   NNE  8.05  54.7   ENE   26.3   25.6   24.9   28.5  1031.1  0.00   0.0   357    15.35    557     1.3  0.28   1.5   0.000   0.166   23.8    41    0.43   700    1    100.0   30 
17/04/19 10:30a   27.1   27.1   26.1    35   10.3  16.1   NNE  8.05  62.8    NE   27.1   26.2   25.6   29.7  1031.5  0.00   0.0   441    18.97    612     1.8  0.39   2.3   0.000   0.182   23.9    40    0.00   702    1    100.0   30 
17/04/19 11:00a   28.2   28.3   27.1    33   10.4  11.3   NNE  5.63  54.7     E   28.2   27.4   27.4   33.1  1031.7  0.00   0.0   626    26.92    636     2.5  0.54   2.6   0.000   0.206   24.0    40    0.48   700    1    100.0   30 
17/04/19 11:30a   28.6   28.6   28.2    32   10.2  16.1   NNE  8.05  49.9    NE   28.6   27.7   27.2   32.3  1031.4  0.00   0.0   650    27.95    696     2.8  0.60   3.1   0.000   0.213   24.2    40    0.00   702    1    100.0   30 
17/04/19 12:00p   28.7   29.1   28.6    32   10.3  16.1   NNE  8.05  49.9   ENE   28.7   27.8   27.3   31.9  1031.0  0.00   0.0   542    23.31    779     2.6  0.56   3.3   0.000   0.215   25.0    40    0.58   702    1    100.0   30 
17/04/19 12:30p   29.2   29.3   28.7    29    9.3  11.3   NNE  5.63  40.2    NE   29.2   28.1   28.1   31.7  1030.6  0.00   0.0   368    15.83    664     2.2  0.47   2.9   0.000   0.226   25.9    39    0.00   699    1    100.0   30 
17/04/19  1:00p   30.4   30.4   29.2    28    9.8  11.3     N  5.63  35.4   NNE   30.4   29.2   29.2   34.9  1030.3  0.00   0.0   701    30.15    802     3.0  0.64   3.3   0.000   0.251   26.3    38    0.48   698    1    100.0   30 
17/04/19  1:30p   29.9   30.4   29.7    28    9.5  14.5     N  7.24  59.5    NE   29.9   28.8   28.4   33.5  1029.9  0.00   0.0   575    24.73    701     2.6  0.56   2.9   0.000   0.242   26.5    37    0.00   700    1    100.0   30 
17/04/19  2:00p   29.9   30.6   29.9    28    9.5  12.9     N  6.44  41.8   NNE   29.9   28.8   28.6   33.9  1029.7  0.00   0.0   583    25.07    670     2.5  0.54   2.7   0.000   0.242   26.7    36    0.56   702    1    100.0   30 
17/04/19  2:30p   29.9   29.9   29.3    29    9.9  14.5   NNE  7.24  53.1   NNE   29.9   28.8   28.5   32.9  1029.4  0.00   0.0   435    18.71    561     1.9  0.41   2.2   0.000   0.241   26.8    36    0.00   699    1    100.0   30 
17/04/19  3:00p   29.2   30.0   29.2    30    9.8  12.9   NNW  6.44  64.4    NE   29.2   28.2   28.0   31.1  1029.4  0.00   0.0   268    11.53    501     1.3  0.28   1.9   0.000   0.226   26.9    40    0.41   703    1    100.0   30 
17/04/19  3:30p   29.7   29.8   29.1    30   10.2  16.1     N  8.05  67.6    NE   29.7   28.7   28.2   32.6  1029.2  0.00   0.0   378    16.26    506     1.2  0.26   1.3   0.000   0.236   27.4    46    0.00   702    1    100.0   30 
17/04/19  4:00p   29.2   29.7   29.2    31   10.3  16.1     N  8.05  53.1    NE   29.2   28.3   27.9   30.7  1029.0  0.00   0.0   225     9.68    334     0.7  0.15   1.0   0.000   0.226   27.6    46    0.41   698    1    100.0   30 
17/04/19  4:30p   28.6   29.2   28.6    32   10.2  14.5   NNE  7.24  43.5    NE   28.6   27.7   27.3   28.4  1028.9  0.00   0.0   102     4.39    120     0.0  0.00   0.5   0.000   0.213   27.7    45    0.00   666    1     97.4   30 
17/04/19  5:00p   28.1   28.6   28.1    33   10.3   9.7   NNE  4.83  35.4    NE   28.1   27.3   27.3   27.4  1028.8  0.00   0.0    48     2.06     79     0.0  0.00   0.0   0.000   0.204   27.6    45    0.20   699    1    100.0   30 
17/04/19  5:30p   27.8   28.1   27.8    34   10.5   9.7   NNE  4.83  38.6    NE   27.8   27.0   27.0   25.7  1028.9  0.00   0.0    13     0.56     30     0.0  0.00   0.0   0.000   0.197   27.7    46    0.00   701    1    100.0   30 
17/04/19  6:00p   27.6   27.8   27.6    34   10.3   6.4     N  3.22  38.6    NE   27.6   26.8   26.8   25.3  1029.0  0.00   0.0     0     0.00      0     0.0  0.00   0.0   0.000   0.193   27.6    45    0.10   700    1    100.0   30 
17/04/19  6:30p   27.3   27.6   27.3    35   10.5   1.6     N  0.80  17.7     N   27.3   26.4   26.4   25.0  1029.5  0.00   0.0     0     0.00      0     0.0  0.00   0.0   0.000   0.186   27.7    45    0.00   699    1    100.0   30 
17/04/19  7:00p   27.2   27.3   27.2    35   10.4   1.6     N  0.80  27.4   NNE   27.2   26.4   26.4   24.9  1029.9  0.00   0.0     0     0.00      0     0.0  0.00   0.0   0.000   0.185   27.6    45    0.08   700    1    100.0   30 
17/04/19  7:30p   27.1   27.3   27.1    35   10.3   1.6     N  0.80  27.4     N   27.1   26.2   26.2   24.8  1029.8  0.00   0.0     0     0.00      0     0.0  0.00   0.0   0.000   0.182   27.4    44    0.00   701    1    100.0   30 
17/04/19  8:00p   26.8   27.1   26.7    35   10.1   0.0     N  0.00  24.1     N   26.8   26.0   26.0   24.6  1029.5  0.00   0.0     0     0.00      0     0.0  0.00   0.0   0.000   0.177   27.6    43    0.08   701    1    100.0   30 
17/04/19  8:30p   26.9   27.0   26.8    35   10.1   4.8     N  2.41  29.0    NE   26.9   26.1   26.1   24.6  1029.2  0.00   0.0     0     0.00      0     0.0  0.00   0.0   0.000   0.178   27.6    43    0.00   700    1    100.0   30 
17/04/19  9:00p   26.4   26.9   26.4    36   10.1   1.6     N  0.80  20.9     N   26.4   25.7   25.7   24.2  1029.5  0.00   0.0     0     0.00      0     0.0  0.00   0.0   0.000   0.168   27.6    43    0.10   702    1    100.0   30 
17/04/19  9:30p   26.3   26.5   26.3    37   10.4   3.2     N  1.61  25.7     N   26.3   25.7   25.7   24.2  1030.1  0.00   0.0     0     0.00      0     0.0  0.00   0.0   0.000   0.166   27.4    42    0.00   700    1    100.0   30 
17/04/19 10:00p   26.8   26.9   26.3    36   10.5   6.4     N  3.22  38.6   NNE   26.8   26.1   26.1   24.6  1030.9  0.00   0.0     0     0.00      0     0.0  0.00   0.0   0.000   0.177   27.6    42    0.10   701    1    100.0   30 
17/04/19 10:30p   19.5   26.8   19.5    75   14.9   9.7    SW  4.83  33.8   SSW   19.5   19.9   19.8   18.5  1033.0  0.00   0.0     0     0.00      0     0.0  0.00   0.0   0.000   0.024   27.6    41    0.00   698    1    100.0   30 
17/04/19 11:00p   18.3   19.4   18.3    73   13.4   8.0    SW  4.02  38.6     S   18.3   18.4   18.3   16.9  1033.9  0.00   0.0     0     0.00      0     0.0  0.00   0.0   0.001   0.000   27.6    42    0.00   699    1    100.0   30 
17/04/19 11:30p   17.7   18.3   17.7    75   13.2   4.8    SW  2.41  43.5    SE   17.7   17.7   17.7   16.4  1034.3  0.00   0.0     0     0.00      0     0.0  0.00   0.0   0.014   0.000   27.6    41    0.08   699    1    100.0   30 
18/04/19 12:00a   16.9   17.7   16.9    70   11.4   4.8   WSW  2.41  33.8   SSE   16.9   16.7   16.7   15.3  1035.2  0.00   0.0     0     0.00      0     0.0  0.00   0.0   0.029   0.000   27.6    42    0.03   677    1     99.0   30 
18/04/19 12:30a   16.8   16.9   16.8    69   11.1   0.0     W  0.00  16.1     W   16.8   16.6   16.6   15.1  1035.7  0.00   0.0     0     0.00      0     0.0  0.00   0.0   0.031   0.000   27.6    41    0.00   702    1    100.0   30 
18/04/19  1:00a   16.8   16.9   16.8    65   10.2   0.0   WNW  0.00  12.9     S   16.8   16.4   16.4   14.9  1035.6  0.00   0.0     0     0.00      0     0.0  0.00   0.0   0.032   0.000   27.6    41    0.03   700    1    100.0   30 
18/04/19  1:30a   16.7   16.8   16.7    64    9.9   0.0   WSW  0.00  14.5   WSW   16.7   16.3   16.3   14.8  1035.9  0.00   0.0     0     0.00      0     0.0  0.00   0.0   0.034   0.000   27.7    41    0.00   699    1    100.0   30 
18/04/19  2:00a   16.6   16.7   16.6    66   10.2   0.0   WSW  0.00  16.1   WSW   16.6   16.2   16.2   14.8  1036.0  0.00   0.0     0     0.00      0     0.0  0.00   0.0   0.036   0.000   27.7    40    0.03   697    1    100.0   30 
18/04/19  2:30a   16.1   16.6   16.1    64    9.3   1.6   WSW  0.80  17.7   WSW   16.1   15.6   15.6   14.1  1035.9  0.00   0.0     0     0.00      0     0.0  0.00   0.0   0.046   0.000   27.7    40    0.00   699    1    100.0   30 
18/04/19  3:00a   15.6   16.1   15.6    67    9.4   0.0   ---  0.00   0.0   ---   15.6   15.1   15.1   13.6  1036.0  0.00   0.0     0     0.00      0     0.0  0.00   0.0   0.058   0.000   27.6    40    0.03   701    1    100.0   30 
18/04/19  3:30a   15.3   15.6   15.3    68    9.5   0.0   ---  0.00   0.0   ---   15.3   14.9   14.9   13.4  1036.0  0.00   0.0     0     0.00      0     0.0  0.00   0.0   0.063   0.000   27.4    39    0.00   701    1    100.0   30 
18/04/19  4:00a   15.2   15.3   15.2    68    9.4   0.0   WSW  0.00  19.3   WSW   15.2   14.8   14.8   13.3  1036.4  0.00   0.0     0     0.00      0     0.0  0.00   0.0   0.065   0.000   27.7    39    0.03   700    1    100.0   30 
18/04/19  4:30a   14.8   15.2   14.8    68    9.0   0.0   ---  0.00   0.0   ---   14.8   14.4   14.4   12.9  1036.9  0.00   0.0     0     0.00      0     0.0  0.00   0.0   0.073   0.000   27.4    39    0.00   700    1    100.0   30 
18/04/19  5:00a   14.7   14.8   14.7    67    8.6   0.0   ---  0.00   0.0   ---   14.7   14.2   14.2   12.7  1037.2  0.00   0.0     0     0.00      0     0.0  0.00   0.0   0.076   0.000   27.7    38    0.03   701    1    100.0   30 
18/04/19  5:30a   13.9   14.7   13.9    68    8.1   0.0   ---  0.00   0.0   ---   13.9   13.4   13.4   11.8  1037.7  0.00   0.0     0     0.00      0     0.0  0.00   0.0   0.093   0.000   27.8    38    0.00   699    1    100.0   30 
18/04/19  6:00a   13.2   13.9   13.2    69    7.7   0.0   ---  0.00   0.0   ---   13.2   12.8   12.8   11.2  1038.1  0.00   0.0     0     0.00      0     0.0  0.00   0.0   0.106   0.000   27.8    38    0.03   701    1    100.0   30 
18/04/19  6:30a   12.6   13.2   12.6    71    7.5   0.0   ---  0.00   0.0   ---   12.6   12.2   12.2   10.7  1038.5  0.00   0.0     0     0.00      0     0.0  0.00   0.0   0.119   0.000   27.7    38    0.00   701    1    100.0   30 
18/04/19  7:00a   12.0   12.6   12.0    74    7.5   0.0   ---  0.00   0.0   ---   12.0   11.7   11.7   10.2  1039.1  0.00   0.0     2     0.09      9     0.0  0.00   0.0   0.132   0.000   27.6    37    0.00   700    1    100.0   30 
18/04/19  7:30a   12.2   12.2   11.8    76    8.1   0.0   ---  0.00   0.0   ---   12.2   11.9   11.9   11.6  1039.5  0.00   0.0    34     1.46     76     0.0  0.00   0.0   0.128   0.000   27.3    37    0.00   703    1    100.0   30 
18/04/19  8:00a   13.8   13.8   12.2    73    9.0   0.0   WSW  0.00  12.9   WSW   13.8   13.4   13.4   15.0  1039.8  0.00   0.0   119     5.12    167     0.0  0.00   0.0   0.095   0.000   27.3    37    0.05   701    1    100.0   30 
18/04/19  8:30a   15.2   15.2   13.8    66    8.9   0.0    SW  0.00  12.9    SW   15.2   14.7   14.7   18.1  1040.2  0.00   0.0   236    10.15    308     0.0  0.00   0.0   0.066   0.000   27.2    37    0.00   677    1     99.0   30 
18/04/19  9:00a   15.1   15.3   15.1    64    8.3   1.6    SW  0.80  14.5    SW   15.1   14.6   14.6   17.8  1040.4  0.00   0.0   247    10.62    343     0.2  0.04   0.5   0.067   0.000   27.3    36    0.13   701    1    100.0   30 
18/04/19  9:30a   16.2   16.2   15.1    62    8.9   0.0   ---  0.00   0.0   ---   16.2   15.6   15.6   19.7  1040.2  0.00   0.0   334    14.36    454     0.8  0.17   1.0   0.045   0.000   27.4    36    0.00   701    1    100.0   30 
18/04/19 10:00a   16.3   16.8   16.2    59    8.2   1.6     S  0.80  22.5     S   16.3   15.6   15.6   19.4  1040.3  0.00   0.0   338    14.54    564     1.1  0.24   1.5   0.043   0.000   27.6    36    0.18   700    1    100.0   30 
18/04/19 10:30a   17.1   17.3   16.2    54    7.7   0.0     S  0.00  22.5     S   17.1   16.2   16.2   19.3  1040.2  0.00   0.0   293    12.60    686     1.2  0.26   1.8   0.027   0.000   27.8    36    0.00   699    1    100.0   30 
18/04/19 11:00a   17.7   17.7   16.9    49    6.9   3.2    SW  1.61  24.1     S   17.7   16.7   16.7   21.8  1040.1  0.00   0.0   515    22.15    782     1.9  0.41   2.3   0.013   0.000   27.6    35    0.23   700    1    100.0   30 
18/04/19 11:30a   18.7   18.7   17.7    47    7.1   1.6     S  0.80  20.9     S   18.7   17.6   17.6   23.3  1040.0  0.00   0.0   648    27.87    721     2.4  0.51   2.7   0.000   0.007   27.7    35    0.00   700    1    100.0   30 
18/04/19 12:00p   18.5   18.8   18.3    47    7.0   3.2     S  1.61  30.6   ESE   18.5   17.4   17.4   23.1  1039.9  0.00   0.0   631    27.14    719     2.5  0.54   2.8   0.000   0.003   27.7    34    0.36   701    1    100.0   30 
18/04/19 12:30p   18.9   18.9   18.4    48    7.6   3.2     S  1.61  30.6     S   18.9   17.9   17.9   23.7  1039.6  0.00   0.0   657    28.25    684     2.7  0.58   2.8   0.000   0.012   27.6    34    0.00   699    1    100.0   30 
18/04/19  1:00p   19.2   19.3   18.9    47    7.6   3.2     S  1.61  25.7   ESE   19.2   18.2   18.2   23.9  1039.1  0.00   0.0   634    27.27    680     2.6  0.56   2.8   0.000   0.019   27.7    34    0.38   679    1     99.3   30 
18/04/19  1:30p   19.1   19.4   19.0    48    7.8   3.2     S  1.61  25.7   SSE   19.1   18.2   18.2   23.9  1038.8  0.00   0.0   618    26.58    649     2.4  0.51   2.6   0.000   0.016   27.7    33    0.00   701    1    100.0   30 
18/04/19  2:00p   19.1   19.3   18.3    50    8.4   4.8   SSE  2.41  33.8   SSW   19.1   18.2   18.2   22.8  1038.9  0.00   0.0   433    18.62    642     1.8  0.39   2.3   0.000   0.015   27.7    34    0.33   703    1    100.0   30 
18/04/19  2:30p   18.7   19.1   18.4    52    8.6   4.8     S  2.41  32.2     S   18.7   17.9   17.9   22.9  1039.1  0.00   0.0   452    19.44    559     1.6  0.34   1.9   0.000   0.007   27.8    33    0.00   701    1    100.0   30 
18/04/19  3:00p   17.8   18.7   17.8    54    8.4   4.8     S  2.41  32.2   SSE   17.8   17.1   17.1   21.0  1039.4  0.00   0.0   321    13.80    536     1.1  0.24   1.6   0.010   0.000   27.6    33    0.25   701    1    100.0   30 
18/04/19  3:30p   17.4   17.9   17.4    55    8.3   3.2     S  1.61  29.0     S   17.4   16.6   16.6   19.2  1039.5  0.00   0.0   211     9.07    251     0.6  0.13   0.8   0.020   0.000   27.7    33    0.00   701    1    100.0   30 
18/04/19  4:00p   17.2   17.4   17.2    56    8.3   1.6     S  0.80  35.4   SSE   17.2   16.4   16.4   18.4  1039.6  0.00   0.0   155     6.67    183     0.0  0.00   0.0   0.024   0.000   27.7    33    0.13   699    1    100.0   30 
18/04/19  4:30p   16.8   17.2   16.8    57    8.2   1.6     S  0.80  30.6     S   16.8   16.0   16.0   17.4  1039.5  0.00   0.0   116     4.99    142     0.0  0.00   0.0   0.032   0.000   27.8    33    0.00   701    1    100.0   30 
18/04/19  5:00p   16.4   16.8   16.4    57    7.8   1.6     S  0.80  24.1     S   16.4   15.6   15.6   15.7  1039.7  0.00   0.0    49     2.11     79     0.0  0.00   0.0   0.041   0.000   27.8    33    0.05   702    1    100.0   30 
18/04/19  5:30p   16.1   16.4   16.1    58    7.8   3.2     S  1.61  33.8     S   16.1   15.3   15.3   14.0  1040.0  0.00   0.0    17     0.73     26     0.0  0.00   0.0   0.046   0.000   27.7    33    0.00   699    1    100.0   30 
18/04/19  6:00p   15.6   16.1   15.6    60    7.9   3.2   SSE  1.61  29.0     S   15.6   14.9   14.9   13.3  1040.5  0.00   0.0     1     0.04      7     0.0  0.00   0.0   0.057   0.000   27.8    33    0.03   702    1    100.0   30 
18/04/19  6:30p   15.3   15.6   15.3    61    7.8   3.2     S  1.61  25.7     S   15.3   14.6   14.6   13.1  1040.3  0.00   0.0     0     0.00      0     0.0  0.00   0.0   0.064   0.000   27.7    33    0.00   698    1    100.0   30 
18/04/19  7:00p   15.0   15.3   15.0    62    7.8   3.2   SSE  1.61  30.6   ESE   15.0   14.3   14.3   12.8  1041.0  0.00   0.0     0     0.00      0     0.0  0.00   0.0   0.069   0.000   27.8    33    0.05   703    1    100.0   30 
18/04/19  7:30p   14.8   15.0   14.8    62    7.6   1.6   WSW  0.80  22.5   SSE   14.8   14.2   14.2   12.6  1041.7  0.00   0.0     0     0.00      0     0.0  0.00   0.0   0.073   0.000   27.8    33    0.00   697    1    100.0   30 
18/04/19  8:00p   14.6   14.8   14.6    63    7.6   0.0    SE  0.00  20.9    SE   14.6   14.0   14.0   12.4  1041.5  0.00   0.0     0     0.00      0     0.0  0.00   0.0   0.078   0.000   27.8    33    0.03   701    1    100.0   30 
18/04/19  8:30p   14.5   14.6   14.5    64    7.8   3.2     S  1.61  30.6   SSW   14.5   13.9   13.9   12.3  1041.6  0.00   0.0     0     0.00      0     0.0  0.00   0.0   0.080   0.000   27.8    32    0.00   701    1    100.0   30 
18/04/19  9:00p   14.3   14.5   14.3    65    7.8   1.6     S  0.80  29.0     S   14.3   13.8   13.8   12.2  1041.6  0.00   0.0     0     0.00      0     0.0  0.00   0.0   0.083   0.000   27.8    32    0.03   702    1    100.0   30 
18/04/19  9:30p   14.2   14.3   14.2    66    7.9   1.6   ESE  0.80  19.3   SSE   14.2   13.6   13.6   12.1  1041.9  0.00   0.0     0     0.00      0     0.0  0.00   0.0   0.087   0.000   27.8    32    0.00   700    1    100.0   30 
18/04/19 10:00p   13.9   14.2   13.9    66    7.7   0.0   SSE  0.00  12.9   SSE   13.9   13.4   13.4   11.8  1041.9  0.00   0.0     0     0.00      0     0.0  0.00   0.0   0.091   0.000   27.8    32    0.03   702    1    100.0   30 
18/04/19 10:30p   13.9   14.0   13.9    65    7.5   1.6   SSE  0.80  19.3   SSE   13.9   13.4   13.4   11.8  1041.8  0.00   0.0     0     0.00      0     0.0  0.00   0.0   0.091   0.000   27.7    32    0.00   701    1    100.0   30 
18/04/19 11:00p   13.7   13.9   13.7    65    7.3   0.0   SSE  0.00  16.1   SSE   13.7   13.2   13.2   11.6  1041.6  0.00   0.0     0     0.00      0     0.0  0.00   0.0   0.096   0.000   27.7    32    0.03   662    1     96.8   30 
18/04/19 11:30p   13.4   13.7   13.4    66    7.2   0.0   SSE  0.00  19.3   SSE   13.4   12.9   12.9   11.3  1041.3  0.00   0.0     0     0.00      0     0.0  0.00   0.0   0.102   0.000   27.6    32    0.00   702    1    100.0   30 
19/04/19 12:00a   13.1   13.4   13.1    67    7.1   0.0   ---  0.00   0.0   ---   13.1   12.6   12.6   10.9  1041.3  0.00   0.0     0     0.00      0     0.0  0.00   0.0   0.110   0.000   27.4    32    0.03   701    1    100.0   30 
19/04/19 12:30a   12.7   13.1   12.7    69    7.1   0.0   SSE  0.00   1.6   SSE   12.7   12.2   12.2   10.6  1041.1  0.00   0.0     0     0.00      0     0.0  0.00   0.0   0.118   0.000   27.4    32    0.00   701    1    100.0   30 
19/04/19  1:00a   12.1   12.7   12.1    71    7.0   0.0   ---  0.00   0.0   ---   12.1   11.7   11.7   10.1  1041.0  0.00   0.0     0     0.00      0     0.0  0.00   0.0   0.130   0.000   27.3    32    0.03   701    1    100.0   30 
19/04/19  1:30a   10.9   12.2   10.9    73    6.3   0.0   ---  0.00   0.0   ---   10.9   10.7   10.7    9.1  1040.9  0.00   0.0     0     0.00      0     0.0  0.00   0.0   0.154   0.000   27.2    32    0.00   701    1    100.0   30 
19/04/19  2:00a    9.7   10.9    9.6    77    5.8   0.0   ---  0.00   0.0   ---    9.7    9.6    9.6    7.9  1040.7  0.00   0.0     0     0.00      0     0.0  0.00   0.0   0.181   0.000   27.0    32    0.03   700    1    100.0   30 
19/04/19  2:30a    8.8    9.6    8.8    81    5.7   0.0   ---  0.00   0.0   ---    8.8    8.7    8.7    7.1  1040.4  0.00   0.0     0     0.00      0     0.0  0.00   0.0   0.199   0.000   26.9    32    0.00   678    1     99.1   30 
19/04/19  3:00a    8.3    8.8    8.3    83    5.6   0.0   ---  0.00   0.0   ---    8.3    8.3    8.3    6.7  1040.1  0.00   0.0     0     0.00      0     0.0  0.00   0.0   0.208   0.000   26.8    32    0.03   700    1    100.0   30 
19/04/19  3:30a    7.9    8.3    7.9    85    5.5   0.0   ---  0.00   0.0   ---    7.9    7.9    7.9    6.2  1040.1  0.00   0.0     0     0.00      0     0.0  0.00   0.0   0.218   0.000   26.6    32    0.00   698    1    100.0   30 
19/04/19  4:00a    7.5    7.9    7.5    85    5.1   0.0   ---  0.00   0.0   ---    7.5    7.5    7.5    5.8  1040.2  0.00   0.0     0     0.00      0     0.0  0.00   0.0   0.226   0.000   26.5    32    0.00   697    1    100.0   30 
19/04/19  4:30a    7.1    7.5    7.1    86    4.9   0.0   ---  0.00   0.0   ---    7.1    7.1    7.1    5.4  1040.2  0.00   0.0     0     0.00      0     0.0  0.00   0.0   0.234   0.000   26.3    32    0.00   698    1    100.0   30 
19/04/19  5:00a    6.8    7.1    6.8    87    4.8   0.0   ---  0.00   0.0   ---    6.8    6.8    6.8    5.1  1040.4  0.00   0.0     0     0.00      0     0.0  0.00   0.0   0.241   0.000   26.2    32    0.00   701    1    100.0   30 
19/04/19  5:30a    6.5    6.8    6.5    88    4.7   0.0   ---  0.00   0.0   ---    6.5    6.5    6.5    4.8  1040.5  0.00   0.0     0     0.00      0     0.0  0.00   0.0   0.247   0.000   26.1    32    0.00   700    1    100.0   30 
19/04/19  6:00a    6.2    6.5    6.2    88    4.3   0.0   ---  0.00   0.0   ---    6.2    6.2    6.2    4.5  1040.4  0.00   0.0     0     0.00      0     0.0  0.00   0.0   0.253   0.000   25.9    32    0.00   700    1    100.0   30 
19/04/19  6:30a    5.9    6.2    5.9    89    4.2   0.0   ---  0.00   0.0   ---    5.9    5.9    5.9    4.2  1040.6  0.00   0.0     0     0.00      0     0.0  0.00   0.0   0.259   0.000   25.9    32    0.00   662    1     96.8   30 
19/04/19  7:00a    5.7    5.9    5.7    90    4.2   0.0   ---  0.00   0.0   ---    5.7    5.7    5.7    4.1  1040.7  0.00   0.0     4     0.17     12     0.0  0.00   0.0   0.263   0.000   25.7    32    0.00   699    1    100.0   30 
19/04/19  7:30a    6.2    6.2    5.7    90    4.7   0.0   ---  0.00   0.0   ---    6.2    6.2    6.2    5.8  1041.0  0.00   0.0    34     1.46     67     0.0  0.00   0.0   0.252   0.000   25.6    32    0.00   700    1    100.0   30 
19/04/19  8:00a    7.5    7.5    6.2    89    5.8   0.0   ---  0.00   0.0   ---    7.5    7.6    7.6    8.9  1041.2  0.00   0.0   113     4.86    163     0.0  0.00   0.0   0.226   0.000   25.5    32    0.03   702    1    100.0   30 
19/04/19  8:30a    9.4    9.4    7.5    84    6.8   0.0   SSE  0.00   6.4   SSE    9.4    9.4    9.4   12.5  1041.4  0.00   0.0   216     9.29    262     0.0  0.00   0.0   0.186   0.000   25.5    32    0.00   672    1     98.2   30 
19/04/19  9:00a   11.6   11.6    9.4    77    7.7   0.0   ---  0.00   0.0   ---   11.6   11.3   11.3   15.4  1041.4  0.00   0.0   309    13.29    352     0.2  0.04   0.6   0.141   0.000   25.6    32    0.13   703    1    100.0   30 
19/04/19  9:30a   13.4   13.4   11.6    70    8.0   0.0   ---  0.00   0.0   ---   13.4   12.9   12.9   17.7  1041.2  0.00   0.0   396    17.03    436     0.8  0.17   1.0   0.103   0.000   25.8    32    0.00   698    1    100.0   30 
19/04/19 10:00a   14.9   14.9   13.4    66    8.6   0.0    SE  0.00   9.7    SE   14.9   14.4   14.4   19.6  1041.1  0.00   0.0   473    20.34    506     1.2  0.26   1.4   0.072   0.000   26.0    32    0.23   698    1    100.0   30 
19/04/19 10:30a   15.8   16.1   14.9    64    9.0   0.0    NE  0.00  22.5    NE   15.8   15.3   15.3   20.8  1040.8  0.00   0.0   536    23.05    563     1.7  0.36   1.9   0.053   0.000   26.3    31    0.00   699    1    100.0   30 
19/04/19 11:00a   17.1   17.1   15.8    60    9.3   0.0   NNE  0.00   4.8   NNE   17.1   16.5   16.5   22.2  1040.5  0.00   0.0   588    25.29    608     2.1  0.45   2.2   0.025   0.000   26.5    31    0.30   701    1    100.0   30 
19/04/19 11:30a   18.2   18.2   17.1    57    9.6   0.0   NNE  0.00  11.3   NNE   18.2   17.6   17.6   23.4  1040.1  0.00   0.0   627    26.96    642     2.4  0.51   2.5   0.002   0.000   26.8    31    0.00   699    1    100.0   30 
19/04/19 12:00p   19.0   19.1   18.2    55    9.8   0.0   ---  0.00   0.0   ---   19.0   18.4   18.4   24.2  1039.5  0.00   0.0   650    27.95    657     2.6  0.56   2.7   0.000   0.014   27.1    31    0.36   700    1    100.0   30 
19/04/19 12:30p   19.9   20.0   19.0    52    9.8   0.0   WSW  0.00  17.7   WSW   19.9   19.3   19.3   25.2  1039.0  0.00   0.0   658    28.30    664     2.7  0.58   2.7   0.000   0.034   27.4    31    0.00   701    1    100.0   30 
19/04/19  1:00p   21.2   21.2   19.8    49   10.0   0.0   WSW  0.00   3.2   WSW   21.2   20.2   20.2   26.1  1038.2  0.00   0.0   649    27.91    656     2.6  0.56   2.7   0.000   0.059   27.7    31    0.38   699    1    100.0   30 
19/04/19  1:30p   22.1   22.1   21.2    46    9.9   0.0   WSW  0.00   4.8   WSW   22.1   21.2   21.2   27.1  1037.8  0.00   0.0   625    26.88    640     2.5  0.54   2.6   0.000   0.078   27.7    31    0.00   700    1    100.0   30 
19/04/19  2:00p   22.4   22.4   21.9    45    9.9   1.6   WSW  0.80  14.5    SW   22.4   21.7   21.7   27.4  1037.3  0.00   0.0   585    25.16    606     2.2  0.47   2.4   0.000   0.084   27.7    31    0.36   702    1    100.0   30 
19/04/19  2:30p   23.2   23.2   22.4    43    9.9   1.6    SW  0.80   9.7    SW   23.2   22.7   22.7   28.3  1037.5  0.00   0.0   529    22.75    561     1.8  0.39   2.1   0.000   0.101   27.7    32    0.00   680    1     99.4   30 
19/04/19  3:00p   23.3   23.6   23.2    43   10.0   3.2   SSW  1.61  16.1   SSW   23.3   22.8   22.8   28.1  1037.3  0.00   0.0   447    19.22    469     1.4  0.30   1.6   0.000   0.103   27.6    32    0.33   700    1    100.0   30 
19/04/19  3:30p   23.4   23.4   23.2    42    9.8   3.2   SSW  1.61  19.3   SSW   23.4   23.1   23.1   28.2  1037.1  0.00   0.0   399    17.16    436     1.1  0.24   1.3   0.000   0.106   27.6    32    0.00   699    1    100.0   30 
19/04/19  4:00p   23.7   23.7   23.4    40    9.3   3.2   SSW  1.61  14.5   SSW   23.7   23.3   23.3   27.8  1036.6  0.00   0.0   314    13.50    357     0.7  0.15   0.9   0.000   0.112   27.7    32    0.25   703    1    100.0   30 
19/04/19  4:30p   23.6   23.7   23.6    40    9.2   3.2   SSW  1.61  19.3     S   23.6   23.1   23.1   26.6  1036.7  0.00   0.0   227     9.76    288     0.3  0.06   0.6   0.000   0.109   27.6    32    0.00   701    1    100.0   30 
19/04/19  5:00p   22.8   23.6   22.8    42    9.2   0.0     S  0.00   3.2     S   22.8   22.2   22.2   22.9  1036.7  0.00   0.0    77     3.31    114     0.0  0.00   0.0   0.000   0.093   27.6    32    0.13   697    1    100.0   30 
19/04/19  5:30p   21.2   22.8   21.2    47    9.5   0.0   ---  0.00   0.0   ---   21.2   20.2   20.2   19.1  1037.0  0.00   0.0    34     1.46     53     0.0  0.00   0.0   0.000   0.060   27.6    32    0.00   697    1    100.0   30 
19/04/19  6:00p   19.0   21.2   19.0    53    9.2   0.0   ---  0.00   0.0   ---   19.0   18.3   18.3   16.7  1037.2  0.00   0.0     2     0.09     12     0.0  0.00   0.0   0.000   0.014   27.4    33    0.03   701    1    100.0   30 
19/04/19  6:30p   17.1   19.0   17.1    62    9.7   0.0   ---  0.00   0.0   ---   17.1   16.6   16.6   15.0  1037.6  0.00   0.0     0     0.00      0     0.0  0.00   0.0   0.027   0.000   27.6    33    0.00   653    1     95.5   30 
19/04/19  7:00p   15.7   17.1   15.7    65    9.2   0.0   ---  0.00   0.0   ---   15.7   15.2   15.2   13.7  1037.7  0.00   0.0     0     0.00      0     0.0  0.00   0.0   0.054   0.000   27.7    33    0.03   699    1    100.0   30 
19/04/19  7:30p   14.4   15.7   14.4    68    8.6   0.0   ---  0.00   0.0   ---   14.4   13.9   13.9   12.3  1038.0  0.00   0.0     0     0.00      0     0.0  0.00   0.0   0.081   0.000   27.7    33    0.00   702    1    100.0   30 
19/04/19  8:00p   13.4   14.4   13.4    73    8.6   0.0   ---  0.00   0.0   ---   13.4   13.0   13.0   11.4  1038.2  0.00   0.0     0     0.00      0     0.0  0.00   0.0   0.103   0.000   27.4    33    0.03   700    1    100.0   30 
19/04/19  8:30p   12.7   13.4   12.7    76    8.6   0.0   ---  0.00   0.0   ---   12.7   12.4   12.4   10.8  1038.1  0.00   0.0     0     0.00      0     0.0  0.00   0.0   0.117   0.000   27.4    33    0.00   702    1    100.0   30 
19/04/19  9:00p   12.3   12.7   12.2    79    8.7   0.0   ---  0.00   0.0   ---   12.3   12.1   12.1   10.5  1038.4  0.00   0.0     0     0.00      0     0.0  0.00   0.0   0.126   0.000   27.4    33    0.03   700    1    100.0   30 
19/04/19  9:30p   11.9   12.3   11.8    79    8.4   0.0   ---  0.00   0.0   ---   11.9   11.7   11.7   10.1  1038.6  0.00   0.0     0     0.00      0     0.0  0.00   0.0   0.134   0.000   27.3    33    0.00   700    1    100.0   30 
19/04/19 10:00p   11.4   11.9   11.4    79    7.9   0.0   ---  0.00   0.0   ---   11.4   11.2   11.2    9.6  1038.6  0.00   0.0     0     0.00      0     0.0  0.00   0.0   0.145   0.000   27.2    33    0.03   702    1    100.0   30 
19/04/19 10:30p   10.8   11.4   10.8    81    7.7   0.0   ---  0.00   0.0   ---   10.8   10.8   10.8    9.1  1038.5  0.00   0.0     0     0.00      0     0.0  0.00   0.0   0.156   0.000   27.1    33    0.00   699    1    100.0   30 
19/04/19 11:00p    9.9   10.8    9.9    81    6.8   0.0   ---  0.00   0.0   ---    9.9    9.9    9.9    8.2  1038.4  0.00   0.0     0     0.00      0     0.0  0.00   0.0   0.176   0.000   27.0    33    0.03   703    1    100.0   30 
19/04/19 11:30p    9.1    9.9    9.1    84    6.5   0.0   ---  0.00   0.0   ---    9.1    9.1    9.1    7.4  1038.4  0.00   0.0     0     0.00      0     0.0  0.00   0.0   0.192   0.000   26.9    33    0.00   701    1    100.0   30 
20/04/19 12:00a    8.3    9.1    8.3    86    6.1   0.0   ---  0.00   0.0   ---    8.3    8.3    8.3    6.7  1038.4  0.00   0.0     0     0.00      0     0.0  0.00   0.0   0.208   0.000   26.7    33    0.00   703    1    100.0   30 
20/04/19 12:30a    7.9    8.3    7.9    88    6.1   0.0   ---  0.00   0.0   ---    7.9    8.0    8.0    6.3  1038.1  0.00   0.0     0     0.00      0     0.0  0.00   0.0   0.216   0.000   26.6    33    0.00   700    1    100.0   30 
20/04/19  1:00a    7.5    7.9    7.5    89    5.8   0.0   ---  0.00   0.0   ---    7.5    7.6    7.6    5.8  1038.0  0.00   0.0     0     0.00      0     0.0  0.00   0.0   0.226   0.000   26.5    33    0.00   681    1     99.6   30 
20/04/19  1:30a    6.9    7.5    6.9    89    5.3   0.0   ---  0.00   0.0   ---    6.9    7.0    7.0    5.3  1037.9  0.00   0.0     0     0.00      0     0.0  0.00   0.0   0.237   0.000   26.3    33    0.00   701    1    100.0   30 
20/04/19  2:00a    6.7    6.9    6.7    90    5.2   0.0   ---  0.00   0.0   ---    6.7    6.8    6.8    5.1  1037.8  0.00   0.0     0     0.00      0     0.0  0.00   0.0   0.242   0.000   26.2    33    0.00   664    1     97.1   30 
20/04/19  2:30a    6.7    6.7    6.3    92    5.5   0.0   ---  0.00   0.0   ---    6.7    6.8    6.8    5.1  1037.6  0.00   0.0     0     0.00      0     0.0  0.00   0.0   0.242   0.000   26.0    33    0.00   700    1    100.0   30 
20/04/19  3:00a    6.2    6.7    6.2    91    4.9   0.0   ---  0.00   0.0   ---    6.2    6.2    6.2    4.5  1037.3  0.00   0.0     0     0.00      0     0.0  0.00   0.0   0.252   0.000   25.9    33    0.00   700    1    100.0   30 
20/04/19  3:30a    6.2    6.2    6.1    92    5.0   0.0   ---  0.00   0.0   ---    6.2    6.3    6.3    4.6  1037.3  0.00   0.0     0     0.00      0     0.0  0.00   0.0   0.252   0.000   25.8    32    0.00   673    1     98.4   30 
20/04/19  4:00a    5.9    6.2    5.8    92    4.7   0.0   ---  0.00   0.0   ---    5.9    5.9    5.9    4.2  1037.2  0.00   0.0     0     0.00      0     0.0  0.00   0.0   0.259   0.000   25.6    32    0.00   701    1    100.0   30 
20/04/19  4:30a    5.7    5.9    5.7    92    4.5   0.0   ---  0.00   0.0   ---    5.7    5.7    5.7    3.9  1037.3  0.00   0.0     0     0.00      0     0.0  0.00   0.0   0.264   0.000   25.6    32    0.00   701    1    100.0   30 
20/04/19  5:00a    5.7    5.7    5.6    93    4.6   0.0   ---  0.00   0.0   ---    5.7    5.7    5.7    4.0  1037.3  0.00   0.0     0     0.00      0     0.0  0.00   0.0   0.264   0.000   25.5    32    0.00   700    1    100.0   30 
20/04/19  5:30a    5.7    5.7    5.5    93    4.6   0.0   ---  0.00   0.0   ---    5.7    5.7    5.7    4.0  1037.3  0.00   0.0     0     0.00      0     0.0  0.00   0.0   0.264   0.000   25.4    32    0.00   675    1     98.7   30 
20/04/19  6:00a    5.6    5.7    5.6    93    4.5   0.0   ---  0.00   0.0   ---    5.6    5.6    5.6    3.9  1037.2  0.00   0.0     0     0.00      0     0.0  0.00   0.0   0.266   0.000   25.3    32    0.00   701    1    100.0   30 
20/04/19  6:30a    5.4    5.6    5.4    93    4.4   0.0   ---  0.00   0.0   ---    5.4    5.5    5.5    3.7  1037.3  0.00   0.0     0     0.00      0     0.0  0.00   0.0   0.269   0.000   25.2    32    0.00   700    1    100.0   30 
20/04/19  7:00a    5.5    5.6    5.4    93    4.5   0.0   ---  0.00   0.0   ---    5.5    5.6    5.6    3.8  1037.5  0.00   0.0     3     0.13     11     0.0  0.00   0.0   0.267   0.000   25.1    32    0.00   702    1    100.0   30 
20/04/19  7:30a    6.3    6.3    5.5    93    5.2   0.0   ---  0.00   0.0   ---    6.3    6.3    6.3    5.9  1037.6  0.00   0.0    32     1.38     62     0.0  0.00   0.0   0.251   0.000   25.0    32    0.00   701    1    100.0   30 
20/04/19  8:00a    7.8    7.8    6.3    91    6.4   0.0   ---  0.00   0.0   ---    7.8    7.8    7.8    9.1  1037.6  0.00   0.0   107     4.60    151     0.0  0.00   0.0   0.220   0.000   25.0    32    0.03   678    1     99.1   30 
20/04/19  8:30a   10.3   10.3    7.8    82    7.4   0.0   ---  0.00   0.0   ---   10.3   10.3   10.3   13.2  1037.5  0.00   0.0   206     8.86    258     0.0  0.00   0.0   0.167   0.000   25.0    32    0.00   701    1    100.0   30 
20/04/19  9:00a   13.4   13.4   10.4    70    8.0   0.0   ---  0.00   0.0   ---   13.4   12.9   12.9   17.0  1037.4  0.00   0.0   305    13.12    346     0.3  0.06   0.7   0.103   0.000   25.1    32    0.00   702    1    100.0   30 
20/04/19  9:30a   16.0   16.0   13.4    63    9.0   0.0   ---  0.00   0.0   ---   16.0   15.4   15.4   20.2  1037.2  0.00   0.0   388    16.69    427     0.9  0.19   1.1   0.049   0.000   25.3    31    0.13   700    1    100.0   30 
20/04/19 10:00a   18.6   18.6   16.1    54    9.1   0.0   ---  0.00   0.0   ---   18.6   17.9   17.9   23.1  1036.8  0.00   0.0   464    19.95    499     1.3  0.28   1.5   0.000   0.006   25.6    31    0.23   701    1    100.0   30 
20/04/19 10:30a   20.9   20.9   18.6    47    9.2   0.0     S  0.00   3.2     S   20.9   19.9   19.9   25.3  1036.4  0.00   0.0   528    22.71    555     1.8  0.39   2.0   0.000   0.054   25.9    31    0.00   700    1    100.0   30 
20/04/19 11:00a   23.4   23.4   21.0    42    9.7   0.0     S  0.00   1.6     S   23.4   22.9   22.9   28.6  1036.0  0.00   0.0   579    24.90    599     2.2  0.47   2.4   0.000   0.105   26.3    31    0.33   700    1    100.0   30 
20/04/19 11:30a   25.4   25.4   23.4    37    9.7   0.0     S  0.00   4.8     S   25.4   24.8   24.8   30.6  1035.5  0.00   0.0   615    26.45    626     2.5  0.54   2.7   0.000   0.148   26.6    31    0.00   702    1    100.0   30 
20/04/19 12:00p   27.2   27.2   25.4    35   10.4   0.0     S  0.00   9.7     S   27.2   26.3   26.3   32.2  1035.0  0.00   0.0   636    27.35    643     2.8  0.60   2.8   0.000   0.184   27.0    31    0.41   702    1    100.0   30 
20/04/19 12:30p   28.5   28.7   27.2    31    9.7   4.8     N  2.41  29.0     N   28.5   27.6   27.6   33.4  1034.4  0.00   0.0   651    28.00    656     2.9  0.62   2.9   0.000   0.212   27.4    31    0.00   702    1    100.0   30 
20/04/19  1:00p   28.7   28.8   28.4    30    9.4   8.0     N  4.02  30.6     N   28.7   27.7   27.7   33.5  1033.9  0.00   0.0   628    27.01    654     2.8  0.60   2.9   0.000   0.216   27.7    31    0.48   702    1    100.0   30 
20/04/19  1:30p   28.9   29.0   28.4    29    9.1   6.4     N  3.22  32.2    NE   28.9   27.8   27.8   33.1  1033.6  0.00   0.0   513    22.06    652     2.4  0.51   2.8   0.000   0.220   27.6    32    0.00   700    1    100.0   30 
20/04/19  2:00p   29.2   29.2   28.8    28    8.8   9.7   NNE  4.83  40.2    NE   29.2   28.0   28.0   33.7  1033.3  0.00   0.0   585    25.16    624     2.4  0.51   2.6   0.000   0.226   27.6    32    0.48   701    1    100.0   30 
20/04/19  2:30p   30.0   30.0   29.2    27    9.0   8.0     N  4.02  30.6   NNE   30.0   28.8   28.8   34.3  1032.8  0.00   0.0   519    22.32    554     2.0  0.43   2.2   0.000   0.243   27.6    32    0.00   701    1    100.0   30 
20/04/19  3:00p   29.3   30.2   29.3    27    8.4   9.7     N  4.83  30.6   NNE   29.3   28.1   28.1   33.4  1032.5  0.00   0.0   461    19.83    494     1.6  0.34   1.8   0.000   0.229   27.6    32    0.43   702    1    100.0   30 
20/04/19  3:30p   29.5   29.8   29.3    27    8.5   9.7     N  4.83  29.0     N   29.5   28.2   28.2   33.2  1032.1  0.00   0.0   382    16.43    422     1.2  0.26   1.4   0.000   0.233   27.6    32    0.00   700    1    100.0   30 
20/04/19  4:00p   29.8   29.9   29.4    27    8.8   6.4     N  3.22  19.3     N   29.8   28.6   28.6   32.9  1031.9  0.00   0.0   300    12.90    343     0.8  0.17   1.0   0.000   0.240   27.6    32    0.33   701    1    100.0   30 
20/04/19  4:30p   29.0   29.8   29.0    28    8.6   9.7     N  4.83  29.0     N   29.0   27.9   27.9   31.0  1031.6  0.00   0.0   199     8.56    253     0.5  0.11   0.7   0.000   0.222   27.4    33    0.00   681    1     99.6   30 
20/04/19  5:00p   28.2   29.0   28.2    30    9.0   1.6     N  0.80  19.3     N   28.2   27.1   27.1   27.1  1031.5  0.00   0.0    44     1.89     90     0.0  0.00   0.0   0.000   0.206   27.6    33    0.15   701    1    100.0   30 
20/04/19  5:30p   26.1   28.2   26.1    34    9.0   0.0   ---  0.00   0.0   ---   26.1   25.4   25.4   24.1  1031.5  0.00   0.0    14     0.60     26     0.0  0.00   0.0   0.000   0.162   27.6    33    0.00   702    1    100.0   30 
20/04/19  6:00p   23.2   26.1   23.2    41    9.2   0.0   ---  0.00   0.0   ---   23.2   22.7   22.7   21.2  1031.7  0.00   0.0     1     0.04      7     0.0  0.00   0.0   0.000   0.102   27.4    33    0.03   699    1    100.0   30 
20/04/19  6:30p   20.7   23.2   20.7    48    9.3   0.0   ---  0.00   0.0   ---   20.7   19.8   19.8   18.3  1032.0  0.00   0.0     0     0.00      0     0.0  0.00   0.0   0.000   0.050   27.6    33    0.00   700    1    100.0   30 
20/04/19  7:00p   18.8   20.7   18.8    55    9.6   0.0   ---  0.00   0.0   ---   18.8   18.2   18.2   16.8  1032.1  0.00   0.0     0     0.00      0     0.0  0.00   0.0   0.000   0.010   27.4    33    0.05   679    1     99.3   30 
20/04/19  7:30p   17.4   18.8   17.4    59    9.3   0.0   ---  0.00   0.0   ---   17.4   16.8   16.8   15.3  1032.1  0.00   0.0     0     0.00      0     0.0  0.00   0.0   0.019   0.000   27.4    33    0.00   701    1    100.0   30 
20/04/19  8:00p   16.3   17.4   16.3    64    9.5   0.0   ---  0.00   0.0   ---   16.3   15.8   15.8   14.3  1032.5  0.00   0.0     0     0.00      0     0.0  0.00   0.0   0.043   0.000   27.4    33    0.03   702    1    100.0   30 
20/04/19  8:30p   15.3   16.3   15.3    66    9.0   0.0   ---  0.00   0.0   ---   15.3   14.8   14.8   13.3  1032.5  0.00   0.0     0     0.00      0     0.0  0.00   0.0   0.063   0.000   27.6    33    0.00   699    1    100.0   30 
20/04/19  9:00p   14.7   15.3   14.7    68    8.9   0.0   ---  0.00   0.0   ---   14.7   14.3   14.3   12.8  1032.4  0.00   0.0     0     0.00      0     0.0  0.00   0.0   0.075   0.000   27.4    33    0.03   702    1    100.0   30 
20/04/19  9:30p   14.2   14.7   14.2    71    9.0   0.0   ---  0.00   0.0   ---   14.2   13.8   13.8   12.3  1032.5  0.00   0.0     0     0.00      0     0.0  0.00   0.0   0.087   0.000   27.6    33    0.00   702    1    100.0   30 
20/04/19 10:00p   13.7   14.2   13.7    73    8.9   0.0   ---  0.00   0.0   ---   13.7   13.3   13.3   11.8  1032.4  0.00   0.0     0     0.00      0     0.0  0.00   0.0   0.097   0.000   27.6    33    0.03   701    1    100.0   30 
20/04/19 10:30p   13.2   13.7   13.2    74    8.6   0.0   ---  0.00   0.0   ---   13.2   12.8   12.8   11.3  1032.2  0.00   0.0     0     0.00      0     0.0  0.00   0.0   0.108   0.000   27.6    33    0.00   701    1    100.0   30 
20/04/19 11:00p   12.7   13.2   12.7    75    8.4   0.0   ---  0.00   0.0   ---   12.7   12.4   12.4   10.9  1032.1  0.00   0.0     0     0.00      0     0.0  0.00   0.0   0.117   0.000   27.6    33    0.03   701    1    100.0   30 
20/04/19 11:30p   12.3   12.7   12.3    77    8.4   0.0   ---  0.00   0.0   ---   12.3   12.1   12.1   10.6  1032.0  0.00   0.0     0     0.00      0     0.0  0.00   0.0   0.125   0.000   27.4    33    0.00   702    1    100.0   30 
21/04/19 12:00a   12.1   12.3   12.0    77    8.1   0.0   ---  0.00   0.0   ---   12.1   11.8   11.8   10.3  1031.6  0.00   0.0     0     0.00      0     0.0  0.00   0.0   0.131   0.000   27.3    33    0.03   698    1    100.0   30 
21/04/19 12:30a   11.9   12.1   11.9    77    8.0   0.0   ---  0.00   0.0   ---   11.9   11.7   11.7   10.2  1031.4  0.00   0.0     0     0.00      0     0.0  0.00   0.0   0.133   0.000   27.3    33    0.00   683    1     99.9   30 
21/04/19  1:00a   11.7   12.0   11.7    78    8.0   0.0   ---  0.00   0.0   ---   11.7   11.5   11.5    9.9  1031.2  0.00   0.0     0     0.00      0     0.0  0.00   0.0   0.138   0.000   27.2    33    0.03   701    1    100.0   30 
21/04/19  1:30a   11.4   11.7   11.4    78    7.7   0.0   ---  0.00   0.0   ---   11.4   11.3   11.3    9.7  1031.1  0.00   0.0     0     0.00      0     0.0  0.00   0.0   0.144   0.000   27.1    33    0.00   702    1    100.0   30 
21/04/19  2:00a   11.3   11.5   11.3    79    7.8   0.0   ---  0.00   0.0   ---   11.3   11.2   11.2    9.6  1031.1  0.00   0.0     0     0.00      0     0.0  0.00   0.0   0.146   0.000   27.0    33    0.03   700    1    100.0   30 
21/04/19  2:30a   11.2   11.3   11.1    80    7.8   0.0   ---  0.00   0.0   ---   11.2   11.1   11.1    9.5  1030.6  0.00   0.0     0     0.00      0     0.0  0.00   0.0   0.149   0.000   27.0    33    0.00   702    1    100.0   30 
21/04/19  3:00a   10.8   11.2   10.8    81    7.7   0.0   ---  0.00   0.0   ---   10.8   10.8   10.8    9.2  1030.5  0.00   0.0     0     0.00      0     0.0  0.00   0.0   0.156   0.000   26.9    33    0.03   701    1    100.0   30 
21/04/19  3:30a   10.8   10.8   10.7    81    7.6   0.0   ---  0.00   0.0   ---   10.8   10.7   10.7    9.2  1030.3  0.00   0.0     0     0.00      0     0.0  0.00   0.0   0.157   0.000   26.8    33    0.00   698    1    100.0   30 
21/04/19  4:00a   10.9   10.9   10.7    82    7.9   0.0   ---  0.00   0.0   ---   10.9   10.8   10.8    9.3  1030.1  0.00   0.0     0     0.00      0     0.0  0.00   0.0   0.155   0.000   26.7    33    0.03   701    1    100.0   30 
21/04/19  4:30a   14.8   14.8   10.9    74   10.2   0.0   ---  0.00   0.0   ---   14.8   14.6   14.6   13.1  1030.0  0.00   0.0     0     0.00      0     0.0  0.00   0.0   0.073   0.000   26.7    33    0.00   699    1    100.0   30 
21/04/19  5:00a   16.0   16.2   14.8    67    9.9   0.0   ---  0.00   0.0   ---   16.0   15.6   15.6   14.2  1030.2  0.00   0.0     0     0.00      0     0.0  0.00   0.0   0.049   0.000   26.6    33    0.03   703    1    100.0   30 
21/04/19  5:30a   15.3   16.0   15.2    71   10.0   0.0   ---  0.00   0.0   ---   15.3   14.9   14.9   13.5  1030.4  0.00   0.0     0     0.00      0     0.0  0.00   0.0   0.064   0.000   26.6    33    0.00   701    1    100.0   30 
21/04/19  6:00a   19.7   19.7   15.3    58   11.2   1.6     N  0.80  19.3     N   19.7   19.4   19.4   18.0  1030.4  0.00   0.0     0     0.00      0     0.0  0.00   0.0   0.000   0.029   26.6    32    0.03   701    1    100.0   30 
21/04/19  6:30a   21.0   21.1   19.8    54   11.3   1.6     N  0.80  19.3     N   21.0   20.3   20.3   18.9  1030.7  0.00   0.0     0     0.00      0     0.0  0.00   0.0   0.000   0.056   26.6    32    0.00   702    1    100.0   30 
21/04/19  7:00a   20.8   21.0   20.5    55   11.5   0.0     N  0.00  16.1     N   20.8   20.2   20.2   18.8  1031.0  0.00   0.0     6     0.26     11     0.0  0.00   0.0   0.000   0.052   26.7    32    0.00   701    1    100.0   30 
21/04/19  7:30a   21.9   21.9   20.8    52   11.6   1.6     N  0.80  22.5     N   21.9   21.3   21.3   21.2  1031.1  0.00   0.0    33     1.42     56     0.0  0.00   0.0   0.000   0.074   26.8    32    0.03   701    1    100.0   30 
21/04/19  8:00a   22.5   22.6   21.9    51   11.9   3.2   NNE  1.61  25.7   NNE   22.5   22.2   22.2   23.1  1031.2  0.00   0.0    84     3.61    127     0.0  0.00   0.0   0.000   0.087   26.9    32    0.05   698    1    100.0   30 
21/04/19  8:30a   23.4   23.4   22.5    49   12.1   4.8   NNE  2.41  35.4   NNE   23.4   23.3   23.3   25.2  1031.0  0.00   0.0   142     6.11    209     0.0  0.00   0.0   0.000   0.106   27.0    32    0.00   701    1    100.0   30 
21/04/19  9:00a   24.4   24.4   23.4    46   12.0   6.4   NNE  3.22  35.4   NNE   24.4   24.2   24.2   26.7  1031.0  0.00   0.0   189     8.13    288     0.5  0.11   0.8   0.000   0.126   27.2    32    0.15   701    1    100.0   30 
21/04/19  9:30a   25.5   25.5   24.4    44   12.3  11.3     N  5.63  43.5   NNE   25.5   25.2   25.2   28.8  1031.0  0.00   0.0   289    12.43    387     0.9  0.19   1.1   0.000   0.149   27.4    32    0.00   703    1    100.0   30 
21/04/19 10:00a   25.6   25.7   25.4    44   12.4  17.7   NNE  8.85  46.7   NNE   25.6   25.3   24.4   27.3  1031.2  0.00   0.0   288    12.39    392     1.2  0.26   1.3   0.000   0.152   27.4    33    0.30   700    1    100.0   30 
21/04/19 10:30a   25.9   25.9   25.6    44   12.7  14.5   NNE  7.24  43.5   NNW   25.9   25.7   25.1   28.4  1030.9  0.00   0.0   325    13.98    418     1.4  0.30   1.8   0.000   0.157   27.6    33    0.00   665    1     97.2   30 
21/04/19 11:00a   26.3   26.3   25.9    44   13.1  16.1   NNE  8.05  40.2    NE   26.3   26.1   25.4   28.9  1030.6  0.00   0.0   365    15.70    450     1.7  0.36   1.8   0.000   0.167   27.4    33    0.36   701    1    100.0   30 
21/04/19 11:30a   26.8   26.8   26.3    44   13.5   9.7     N  4.83  37.0    NE   26.8   26.5   26.5   29.9  1030.9  0.00   0.0   314    13.50    359     1.6  0.34   1.7   0.000   0.176   27.4    33    0.00   702    1    100.0   30 
21/04/19 12:00p   26.6   27.1   26.6    43   13.0   9.7   NNW  4.83  46.7   NNE   26.6   26.3   26.3   28.8  1030.8  0.00   0.0   253    10.88    274     1.4  0.30   1.5   0.000   0.172   27.4    34    0.28   700    1    100.0   30 
21/04/19 12:30p   26.0   26.6   26.0    45   13.1  11.3   NNW  5.63  40.2   NNE   26.0   25.8   25.8   27.8  1030.5  0.00   0.0   210     9.03    232     1.2  0.26   1.3   0.000   0.160   27.4    34    0.00   699    1    100.0   30 
21/04/19  1:00p   26.5   26.5   26.0    44   13.3   9.7   NNE  4.83  40.2   NNE   26.5   26.2   26.2   28.7  1029.8  0.00   0.0   246    10.58    346     1.3  0.28   1.7   0.000   0.170   27.4    34    0.00   702    1    100.0   30 
21/04/19  1:30p   26.9   26.9   26.5    44   13.7   9.7   NNE  4.83  43.5    NE   26.9   26.7   26.7   29.1  1029.6  0.00   0.0   238    10.24    262     1.3  0.28   1.4   0.000   0.179   27.4    34    0.25   699    1    100.0   30 
21/04/19  2:00p   27.2   27.2   26.9    44   13.9   9.7     N  4.83  35.4   NNE   27.2   26.9   26.9   29.2  1029.4  0.00   0.0   220     9.46    262     1.1  0.24   1.3   0.000   0.184   27.4    35    0.23   698    1    100.0   30 
21/04/19  2:30p   27.2   27.4   27.2    45   14.2   9.7   NNE  4.83  40.2    NE   27.2   26.9   26.9   29.1  1029.2  0.00   0.0   194     8.34    244     1.0  0.21   1.2   0.000   0.184   27.4    35    0.00   700    1    100.0   30 
21/04/19  3:00p   27.1   27.2   27.1    45   14.1   9.7     N  4.83  41.8   NNE   27.1   26.8   26.8   28.6  1029.1  0.00   0.0   156     6.71    171     0.7  0.15   0.8   0.000   0.182   27.6    35    0.20   698    1    100.0   30 
21/04/19  3:30p   27.1   27.1   27.1    46   14.5   9.7     N  4.83  43.5    NE   27.1   26.9   26.9   28.8  1029.0  0.00   0.0   147     6.32    213     0.5  0.11   0.6   0.000   0.183   27.6    35    0.00   701    1    100.0   30 
21/04/19  4:00p   27.2   27.3   27.1    46   14.5   9.7   NNW  4.83  37.0    NE   27.2   27.0   27.0   29.4  1028.9  0.00   0.0   162     6.97    272     0.4  0.09   0.7   0.000   0.184   27.6    36    0.20   700    1    100.0   30 
21/04/19  4:30p   26.9   27.2   26.9    47   14.7   6.4     N  3.22  35.4   NNE   26.9   26.8   26.8   27.3  1029.0  0.00   0.0    61     2.62     98     0.0  0.00   0.0   0.000   0.179   27.4    36    0.00   702    1    100.0   30 
21/04/19  5:00p   26.8   26.9   26.8    47   14.5   6.4     N  3.22  30.6    NE   26.8   26.7   26.7   26.8  1029.0  0.00   0.0    41     1.76     54     0.0  0.00   0.0   0.000   0.176   27.4    36    0.10   700    1    100.0   30 
21/04/19  5:30p   26.4   26.8   26.4    48   14.5   3.2   NNW  1.61  27.4   NNE   26.4   26.4   26.4   25.3  1029.1  0.00   0.0    16     0.69     28     0.0  0.00   0.0   0.000   0.169   27.6    36    0.00   701    1    100.0   30 
21/04/19  6:00p   26.0   26.4   26.0    49   14.5   1.6   NNW  0.80  17.7    NW   26.0   26.1   26.1   24.8  1029.3  0.00   0.0     1     0.04      7     0.0  0.00   0.0   0.000   0.160   27.6    37    0.03   703    1    100.0   30 
21/04/19  6:30p   25.7   26.0   25.7    50   14.5   0.0   NNW  0.00  12.9   NNW   25.7   25.7   25.7   24.4  1029.8  0.00   0.0     0     0.00      0     0.0  0.00   0.0   0.000   0.153   27.6    37    0.00   700    1    100.0   30 
21/04/19  7:00p   25.3   25.7   25.3    52   14.8   0.0   NNW  0.00  11.3   NNW   25.3   25.4   25.4   24.1  1030.3  0.00   0.0     0     0.00      0     0.0  0.00   0.0   0.000   0.146   27.6    37    0.00   702    1    100.0   30 
21/04/19  7:30p   22.7   25.3   22.7    61   14.8   0.0    SW  0.00  19.3    SW   22.7   22.9   22.9   21.7  1030.8  0.51   7.9     0     0.00      0     0.0  0.00   0.0   0.000   0.091   27.4    37    0.05   700    1    100.0   30 
21/04/19  8:00p   20.3   22.7   20.3    67   13.9   3.2   WSW  1.61  24.1   SSE   20.3   20.4   20.4   19.1  1032.1  0.00   0.0     0     0.00      0     0.0  0.00   0.0   0.000   0.041   27.6    37    0.05   699    1    100.0   30